<?xml version='1.0' encoding='UTF-8'?><gpx version="1.1" creator="JPX - https://github.com/jenetics/jpx" xmlns="http://www.topografix.com/GPX/1/1"><trk><trkseg><trkpt lat="41.0788617" lon="16.7833117"><ele>83.0</ele><time>2026-03-22T08:23:22.266Z</time></trkpt><trkpt lat="41.0790767" lon="16.7831933"><ele>83.0</ele><time>2026-03-22T08:23:23.266Z</time></trkpt><trkpt lat="41.0791867" lon="16.7843567"><ele>83.0</ele><time>2026-03-22T08:23:31.275Z</time></trkpt><trkpt lat="41.078665" lon="16.7834333"><ele>83.0</ele><time>2026-03-22T08:23:33.975Z</time></trkpt><trkpt lat="41.0785733" lon="16.7834367"><ele>83.0</ele><time>2026-03-22T08:23:34.975Z</time></trkpt><trkpt lat="41.078905" lon="16.7834933"><ele>83.0</ele><time>2026-03-22T08:23:36.975Z</time></trkpt><trkpt lat="41.0788117" lon="16.7834783"><ele>83.0</ele><time>2026-03-22T08:23:38.975Z</time></trkpt><trkpt lat="41.0781017" lon="16.783365"><ele>83.0</ele><time>2026-03-22T08:23:42.981Z</time></trkpt><trkpt lat="41.0780983" lon="16.7828717"><ele>83.0</ele><time>2026-03-22T08:23:43.981Z</time></trkpt><trkpt lat="41.07823" lon="16.7829283"><ele>83.0</ele><time>2026-03-22T08:23:44.981Z</time></trkpt><trkpt lat="41.0781517" lon="16.7828917"><ele>83.0</ele><time>2026-03-22T08:23:48.981Z</time></trkpt><trkpt lat="41.077965" lon="16.7828633"><ele>83.0</ele><time>2026-03-22T08:23:49.981Z</time></trkpt><trkpt lat="41.077885" lon="16.7828667"><ele>83.0</ele><time>2026-03-22T08:23:50.982Z</time></trkpt><trkpt lat="41.0778083" lon="16.7828183"><ele>83.0</ele><time>2026-03-22T08:23:52.981Z</time></trkpt><trkpt lat="41.077745" lon="16.7827367"><ele>83.16666666666667</ele><time>2026-03-22T08:23:54.982Z</time></trkpt><trkpt lat="41.0776583" lon="16.7826783"><ele>83.33333333333334</ele><time>2026-03-22T08:23:56.982Z</time></trkpt><trkpt lat="41.0775783" lon="16.7826783"><ele>83.5</ele><time>2026-03-22T08:23:58.982Z</time></trkpt><trkpt lat="41.077515" lon="16.7826033"><ele>83.66666666666667</ele><time>2026-03-22T08:24:00.982Z</time></trkpt><trkpt lat="41.0774567" lon="16.782535"><ele>83.83333333333333</ele><time>2026-03-22T08:24:02.982Z</time></trkpt><trkpt lat="41.077405" lon="16.7824483"><ele>84.0</ele><time>2026-03-22T08:24:04.982Z</time></trkpt><trkpt lat="41.0773583" lon="16.7823717"><ele>84.0</ele><time>2026-03-22T08:24:06.982Z</time></trkpt><trkpt lat="41.07731" lon="16.7823117"><ele>84.0</ele><time>2026-03-22T08:24:08.982Z</time></trkpt><trkpt lat="41.0772283" lon="16.7821817"><ele>84.0</ele><time>2026-03-22T08:24:11.982Z</time></trkpt><trkpt lat="41.077185" lon="16.7820933"><ele>84.0</ele><time>2026-03-22T08:24:14.982Z</time></trkpt><trkpt lat="41.0771717" lon="16.7820017"><ele>84.0</ele><time>2026-03-22T08:24:16.982Z</time></trkpt><trkpt lat="41.0771517" lon="16.7819"><ele>84.0</ele><time>2026-03-22T08:24:18.982Z</time></trkpt><trkpt lat="41.0771483" lon="16.7817583"><ele>84.0</ele><time>2026-03-22T08:24:20.982Z</time></trkpt><trkpt lat="41.0771467" lon="16.7814483"><ele>84.0</ele><time>2026-03-22T08:24:21.982Z</time></trkpt><trkpt lat="41.0772417" lon="16.781545"><ele>84.0</ele><time>2026-03-22T08:24:22.982Z</time></trkpt><trkpt lat="41.0773017" lon="16.7815117"><ele>84.0</ele><time>2026-03-22T08:24:23.982Z</time></trkpt><trkpt lat="41.0772917" lon="16.7813933"><ele>84.0</ele><time>2026-03-22T08:24:25.982Z</time></trkpt><trkpt lat="41.077255" lon="16.7812867"><ele>84.0</ele><time>2026-03-22T08:24:27.982Z</time></trkpt><trkpt lat="41.07722" lon="16.781205"><ele>84.0</ele><time>2026-03-22T08:24:29.982Z</time></trkpt><trkpt lat="41.0771533" lon="16.781125"><ele>84.0</ele><time>2026-03-22T08:24:31.982Z</time></trkpt><trkpt lat="41.0770833" lon="16.78108"><ele>84.0</ele><time>2026-03-22T08:24:33.982Z</time></trkpt><trkpt lat="41.07703" lon="16.7810083"><ele>84.0</ele><time>2026-03-22T08:24:35.982Z</time></trkpt><trkpt lat="41.0769433" lon="16.7809067"><ele>83.85714285714286</ele><time>2026-03-22T08:24:38.982Z</time></trkpt><trkpt lat="41.0768933" lon="16.7808317"><ele>83.71428571428572</ele><time>2026-03-22T08:24:40.982Z</time></trkpt><trkpt lat="41.0768517" lon="16.7807567"><ele>83.57142857142857</ele><time>2026-03-22T08:24:42.982Z</time></trkpt><trkpt lat="41.0768067" lon="16.7806817"><ele>83.42857142857143</ele><time>2026-03-22T08:24:44.982Z</time></trkpt><trkpt lat="41.07676" lon="16.7806033"><ele>83.28571428571429</ele><time>2026-03-22T08:24:46.982Z</time></trkpt><trkpt lat="41.076705" lon="16.7805317"><ele>83.14285714285714</ele><time>2026-03-22T08:24:48.982Z</time></trkpt><trkpt lat="41.0766317" lon="16.7805283"><ele>83.0</ele><time>2026-03-22T08:24:51.982Z</time></trkpt><trkpt lat="41.0765983" lon="16.7806083"><ele>83.0</ele><time>2026-03-22T08:24:53.982Z</time></trkpt><trkpt lat="41.0765733" lon="16.7807083"><ele>83.0</ele><time>2026-03-22T08:24:55.982Z</time></trkpt><trkpt lat="41.0765283" lon="16.78081"><ele>83.0</ele><time>2026-03-22T08:24:57.982Z</time></trkpt><trkpt lat="41.0764817" lon="16.780905"><ele>83.0</ele><time>2026-03-22T08:24:59.982Z</time></trkpt><trkpt lat="41.076435" lon="16.7809967"><ele>83.0</ele><time>2026-03-22T08:25:01.982Z</time></trkpt><trkpt lat="41.0763917" lon="16.78109"><ele>83.0</ele><time>2026-03-22T08:25:03.982Z</time></trkpt><trkpt lat="41.076365" lon="16.7811967"><ele>82.83333333333334</ele><time>2026-03-22T08:25:05.982Z</time></trkpt><trkpt lat="41.0763267" lon="16.7812917"><ele>82.66666666666667</ele><time>2026-03-22T08:25:07.982Z</time></trkpt><trkpt lat="41.0762983" lon="16.7813867"><ele>82.5</ele><time>2026-03-22T08:25:09.982Z</time></trkpt><trkpt lat="41.0762767" lon="16.78149"><ele>82.33333333333333</ele><time>2026-03-22T08:25:11.982Z</time></trkpt><trkpt lat="41.0762517" lon="16.7815933"><ele>82.16666666666666</ele><time>2026-03-22T08:25:13.982Z</time></trkpt><trkpt lat="41.0762183" lon="16.78169"><ele>82.0</ele><time>2026-03-22T08:25:15.982Z</time></trkpt><trkpt lat="41.0762" lon="16.7817867"><ele>82.16666666666666</ele><time>2026-03-22T08:25:17.982Z</time></trkpt><trkpt lat="41.0761683" lon="16.7818817"><ele>82.33333333333333</ele><time>2026-03-22T08:25:19.982Z</time></trkpt><trkpt lat="41.0761367" lon="16.7819833"><ele>82.5</ele><time>2026-03-22T08:25:21.982Z</time></trkpt><trkpt lat="41.07611" lon="16.782085"><ele>82.66666666666667</ele><time>2026-03-22T08:25:23.982Z</time></trkpt><trkpt lat="41.0760833" lon="16.782175"><ele>82.83333333333334</ele><time>2026-03-22T08:25:25.982Z</time></trkpt><trkpt lat="41.0760433" lon="16.782265"><ele>83.0</ele><time>2026-03-22T08:25:27.982Z</time></trkpt><trkpt lat="41.0760067" lon="16.7823517"><ele>83.0</ele><time>2026-03-22T08:25:29.982Z</time></trkpt><trkpt lat="41.075975" lon="16.7824483"><ele>83.0</ele><time>2026-03-22T08:25:31.982Z</time></trkpt><trkpt lat="41.0759333" lon="16.7825517"><ele>83.0</ele><time>2026-03-22T08:25:33.982Z</time></trkpt><trkpt lat="41.0759017" lon="16.7826517"><ele>83.0</ele><time>2026-03-22T08:25:35.982Z</time></trkpt><trkpt lat="41.0758767" lon="16.7827517"><ele>83.0</ele><time>2026-03-22T08:25:37.982Z</time></trkpt><trkpt lat="41.075845" lon="16.7828367"><ele>83.0</ele><time>2026-03-22T08:25:39.982Z</time></trkpt><trkpt lat="41.0758017" lon="16.7829317"><ele>83.0</ele><time>2026-03-22T08:25:41.982Z</time></trkpt><trkpt lat="41.0757667" lon="16.78302"><ele>83.0</ele><time>2026-03-22T08:25:43.982Z</time></trkpt><trkpt lat="41.0757283" lon="16.7831117"><ele>83.0</ele><time>2026-03-22T08:25:45.982Z</time></trkpt><trkpt lat="41.0756933" lon="16.783205"><ele>83.0</ele><time>2026-03-22T08:25:47.982Z</time></trkpt><trkpt lat="41.07565" lon="16.7832933"><ele>83.0</ele><time>2026-03-22T08:25:49.982Z</time></trkpt><trkpt lat="41.0756033" lon="16.78338"><ele>83.0</ele><time>2026-03-22T08:25:51.982Z</time></trkpt><trkpt lat="41.075565" lon="16.7834633"><ele>83.0</ele><time>2026-03-22T08:25:53.982Z</time></trkpt><trkpt lat="41.0755283" lon="16.78356"><ele>83.0</ele><time>2026-03-22T08:25:55.982Z</time></trkpt><trkpt lat="41.0755" lon="16.7836567"><ele>83.0</ele><time>2026-03-22T08:25:57.982Z</time></trkpt><trkpt lat="41.0754767" lon="16.7837483"><ele>83.0</ele><time>2026-03-22T08:25:59.982Z</time></trkpt><trkpt lat="41.0754417" lon="16.7838383"><ele>83.0</ele><time>2026-03-22T08:26:01.982Z</time></trkpt><trkpt lat="41.075405" lon="16.78392"><ele>83.0</ele><time>2026-03-22T08:26:03.982Z</time></trkpt><trkpt lat="41.0753633" lon="16.7840017"><ele>83.0</ele><time>2026-03-22T08:26:05.982Z</time></trkpt><trkpt lat="41.07529" lon="16.7840017"><ele>83.0</ele><time>2026-03-22T08:26:07.982Z</time></trkpt><trkpt lat="41.075205" lon="16.7839917"><ele>83.0</ele><time>2026-03-22T08:26:09.982Z</time></trkpt><trkpt lat="41.075125" lon="16.784"><ele>83.0</ele><time>2026-03-22T08:26:11.982Z</time></trkpt><trkpt lat="41.0750483" lon="16.7839817"><ele>83.0</ele><time>2026-03-22T08:26:13.982Z</time></trkpt><trkpt lat="41.07497" lon="16.7839383"><ele>83.0</ele><time>2026-03-22T08:26:15.982Z</time></trkpt><trkpt lat="41.0748917" lon="16.7838833"><ele>83.0</ele><time>2026-03-22T08:26:17.982Z</time></trkpt><trkpt lat="41.0748133" lon="16.7838367"><ele>83.0</ele><time>2026-03-22T08:26:19.982Z</time></trkpt><trkpt lat="41.074735" lon="16.78379"><ele>83.0</ele><time>2026-03-22T08:26:21.982Z</time></trkpt><trkpt lat="41.07466" lon="16.7837383"><ele>83.0</ele><time>2026-03-22T08:26:23.982Z</time></trkpt><trkpt lat="41.07459" lon="16.78369"><ele>83.0</ele><time>2026-03-22T08:26:25.982Z</time></trkpt><trkpt lat="41.0745167" lon="16.7836417"><ele>83.0</ele><time>2026-03-22T08:26:27.982Z</time></trkpt><trkpt lat="41.0744383" lon="16.7835933"><ele>83.0</ele><time>2026-03-22T08:26:29.982Z</time></trkpt><trkpt lat="41.0743533" lon="16.78355"><ele>83.0</ele><time>2026-03-22T08:26:31.982Z</time></trkpt><trkpt lat="41.0742733" lon="16.7835217"><ele>83.0</ele><time>2026-03-22T08:26:33.982Z</time></trkpt><trkpt lat="41.0741883" lon="16.7835117"><ele>83.0</ele><time>2026-03-22T08:26:35.982Z</time></trkpt><trkpt lat="41.0741067" lon="16.7835267"><ele>83.0</ele><time>2026-03-22T08:26:37.982Z</time></trkpt><trkpt lat="41.0740267" lon="16.7835583"><ele>83.0</ele><time>2026-03-22T08:26:39.982Z</time></trkpt><trkpt lat="41.0739517" lon="16.7836083"><ele>83.16666666666667</ele><time>2026-03-22T08:26:41.982Z</time></trkpt><trkpt lat="41.0738817" lon="16.7836633"><ele>83.33333333333334</ele><time>2026-03-22T08:26:43.983Z</time></trkpt><trkpt lat="41.07381" lon="16.78372"><ele>83.5</ele><time>2026-03-22T08:26:45.982Z</time></trkpt><trkpt lat="41.073735" lon="16.78376"><ele>83.66666666666667</ele><time>2026-03-22T08:26:47.982Z</time></trkpt><trkpt lat="41.073655" lon="16.7838"><ele>83.83333333333333</ele><time>2026-03-22T08:26:49.982Z</time></trkpt><trkpt lat="41.0735717" lon="16.7838183"><ele>84.0</ele><time>2026-03-22T08:26:51.982Z</time></trkpt><trkpt lat="41.0734867" lon="16.7838317"><ele>84.0</ele><time>2026-03-22T08:26:53.982Z</time></trkpt><trkpt lat="41.0733967" lon="16.783835"><ele>84.0</ele><time>2026-03-22T08:26:55.982Z</time></trkpt><trkpt lat="41.0733067" lon="16.783835"><ele>84.0</ele><time>2026-03-22T08:26:57.982Z</time></trkpt><trkpt lat="41.0732267" lon="16.7838417"><ele>84.0</ele><time>2026-03-22T08:26:59.982Z</time></trkpt><trkpt lat="41.073145" lon="16.7838483"><ele>84.0</ele><time>2026-03-22T08:27:01.982Z</time></trkpt><trkpt lat="41.0730683" lon="16.7838583"><ele>84.0</ele><time>2026-03-22T08:27:03.982Z</time></trkpt><trkpt lat="41.0729867" lon="16.7838733"><ele>84.0</ele><time>2026-03-22T08:27:05.982Z</time></trkpt><trkpt lat="41.072905" lon="16.7838783"><ele>84.0</ele><time>2026-03-22T08:27:07.982Z</time></trkpt><trkpt lat="41.0728233" lon="16.783885"><ele>84.0</ele><time>2026-03-22T08:27:09.982Z</time></trkpt><trkpt lat="41.0727383" lon="16.78389"><ele>84.0</ele><time>2026-03-22T08:27:11.982Z</time></trkpt><trkpt lat="41.072655" lon="16.7839"><ele>84.0</ele><time>2026-03-22T08:27:13.982Z</time></trkpt><trkpt lat="41.0725733" lon="16.78391"><ele>84.0</ele><time>2026-03-22T08:27:15.982Z</time></trkpt><trkpt lat="41.0724967" lon="16.7838933"><ele>84.16666666666667</ele><time>2026-03-22T08:27:17.982Z</time></trkpt><trkpt lat="41.07242" lon="16.7838583"><ele>84.33333333333333</ele><time>2026-03-22T08:27:19.982Z</time></trkpt><trkpt lat="41.07234" lon="16.783825"><ele>84.5</ele><time>2026-03-22T08:27:21.982Z</time></trkpt><trkpt lat="41.0722567" lon="16.7837967"><ele>84.66666666666666</ele><time>2026-03-22T08:27:23.982Z</time></trkpt><trkpt lat="41.0721733" lon="16.7838033"><ele>84.83333333333333</ele><time>2026-03-22T08:27:25.982Z</time></trkpt><trkpt lat="41.07211" lon="16.7838817"><ele>85.0</ele><time>2026-03-22T08:27:27.982Z</time></trkpt><trkpt lat="41.0720883" lon="16.7839967"><ele>85.0</ele><time>2026-03-22T08:27:29.982Z</time></trkpt><trkpt lat="41.0720983" lon="16.7841233"><ele>85.0</ele><time>2026-03-22T08:27:31.982Z</time></trkpt><trkpt lat="41.07212" lon="16.7842483"><ele>85.0</ele><time>2026-03-22T08:27:33.982Z</time></trkpt><trkpt lat="41.072145" lon="16.7843717"><ele>85.0</ele><time>2026-03-22T08:27:35.982Z</time></trkpt><trkpt lat="41.0721683" lon="16.78449"><ele>85.0</ele><time>2026-03-22T08:27:37.982Z</time></trkpt><trkpt lat="41.0721867" lon="16.7846133"><ele>84.83333333333333</ele><time>2026-03-22T08:27:39.982Z</time></trkpt><trkpt lat="41.0721967" lon="16.7847317"><ele>84.66666666666666</ele><time>2026-03-22T08:27:41.982Z</time></trkpt><trkpt lat="41.0722133" lon="16.7848417"><ele>84.5</ele><time>2026-03-22T08:27:43.982Z</time></trkpt><trkpt lat="41.0722333" lon="16.7849533"><ele>84.33333333333333</ele><time>2026-03-22T08:27:45.982Z</time></trkpt><trkpt lat="41.0722533" lon="16.7850717"><ele>84.16666666666667</ele><time>2026-03-22T08:27:47.982Z</time></trkpt><trkpt lat="41.072265" lon="16.7851883"><ele>84.0</ele><time>2026-03-22T08:27:49.982Z</time></trkpt><trkpt lat="41.0722833" lon="16.7852983"><ele>83.66666666666667</ele><time>2026-03-22T08:27:51.982Z</time></trkpt><trkpt lat="41.0723083" lon="16.785405"><ele>83.33333333333333</ele><time>2026-03-22T08:27:53.982Z</time></trkpt><trkpt lat="41.0723267" lon="16.7855183"><ele>83.0</ele><time>2026-03-22T08:27:55.982Z</time></trkpt><trkpt lat="41.0723467" lon="16.7856367"><ele>82.66666666666666</ele><time>2026-03-22T08:27:57.982Z</time></trkpt><trkpt lat="41.0723617" lon="16.78575"><ele>82.33333333333333</ele><time>2026-03-22T08:27:59.982Z</time></trkpt><trkpt lat="41.0723817" lon="16.7858667"><ele>82.0</ele><time>2026-03-22T08:28:01.982Z</time></trkpt><trkpt lat="41.0723983" lon="16.7859783"><ele>81.8</ele><time>2026-03-22T08:28:03.982Z</time></trkpt><trkpt lat="41.0724167" lon="16.786095"><ele>81.6</ele><time>2026-03-22T08:28:05.982Z</time></trkpt><trkpt lat="41.0724317" lon="16.7862167"><ele>81.39999999999999</ele><time>2026-03-22T08:28:07.982Z</time></trkpt><trkpt lat="41.0724533" lon="16.7863367"><ele>81.19999999999999</ele><time>2026-03-22T08:28:09.982Z</time></trkpt><trkpt lat="41.0724733" lon="16.7864533"><ele>81.0</ele><time>2026-03-22T08:28:11.982Z</time></trkpt><trkpt lat="41.0725067" lon="16.7865667"><ele>81.33333333333333</ele><time>2026-03-22T08:28:13.983Z</time></trkpt><trkpt lat="41.0725617" lon="16.78666"><ele>81.66666666666667</ele><time>2026-03-22T08:28:15.982Z</time></trkpt><trkpt lat="41.0726233" lon="16.7867333"><ele>82.0</ele><time>2026-03-22T08:28:17.982Z</time></trkpt><trkpt lat="41.072685" lon="16.7868083"><ele>82.33333333333334</ele><time>2026-03-22T08:28:19.982Z</time></trkpt><trkpt lat="41.0727417" lon="16.786895"><ele>82.66666666666667</ele><time>2026-03-22T08:28:21.982Z</time></trkpt><trkpt lat="41.0727867" lon="16.7869933"><ele>83.0</ele><time>2026-03-22T08:28:23.982Z</time></trkpt><trkpt lat="41.0728167" lon="16.7871117"><ele>82.0</ele><time>2026-03-22T08:28:25.982Z</time></trkpt><trkpt lat="41.0728217" lon="16.78723"><ele>81.0</ele><time>2026-03-22T08:28:27.982Z</time></trkpt><trkpt lat="41.0727983" lon="16.7873483"><ele>80.0</ele><time>2026-03-22T08:28:29.982Z</time></trkpt><trkpt lat="41.0727517" lon="16.7874583"><ele>79.0</ele><time>2026-03-22T08:28:31.982Z</time></trkpt><trkpt lat="41.0726883" lon="16.7875583"><ele>78.0</ele><time>2026-03-22T08:28:33.982Z</time></trkpt><trkpt lat="41.072645" lon="16.7876733"><ele>78.0</ele><time>2026-03-22T08:28:35.983Z</time></trkpt><trkpt lat="41.0726517" lon="16.787785"><ele>78.0</ele><time>2026-03-22T08:28:37.982Z</time></trkpt><trkpt lat="41.0726867" lon="16.7878833"><ele>78.0</ele><time>2026-03-22T08:28:40.982Z</time></trkpt><trkpt lat="41.0726083" lon="16.787865"><ele>78.0</ele><time>2026-03-22T08:28:44.982Z</time></trkpt><trkpt lat="41.0725717" lon="16.787785"><ele>78.0</ele><time>2026-03-22T08:28:46.982Z</time></trkpt><trkpt lat="41.0725267" lon="16.7876967"><ele>78.0</ele><time>2026-03-22T08:28:48.982Z</time></trkpt><trkpt lat="41.0724767" lon="16.7876167"><ele>77.66666666666667</ele><time>2026-03-22T08:28:50.982Z</time></trkpt><trkpt lat="41.07242" lon="16.78755"><ele>77.33333333333333</ele><time>2026-03-22T08:28:52.982Z</time></trkpt><trkpt lat="41.0723633" lon="16.78748"><ele>77.0</ele><time>2026-03-22T08:28:54.982Z</time></trkpt><trkpt lat="41.0722967" lon="16.78742"><ele>76.66666666666666</ele><time>2026-03-22T08:28:56.982Z</time></trkpt><trkpt lat="41.0722233" lon="16.7873667"><ele>76.33333333333333</ele><time>2026-03-22T08:28:58.982Z</time></trkpt><trkpt lat="41.0721467" lon="16.7873183"><ele>76.0</ele><time>2026-03-22T08:29:00.982Z</time></trkpt><trkpt lat="41.072065" lon="16.787285"><ele>76.0</ele><time>2026-03-22T08:29:02.982Z</time></trkpt><trkpt lat="41.0719733" lon="16.7872583"><ele>76.0</ele><time>2026-03-22T08:29:04.982Z</time></trkpt><trkpt lat="41.0718783" lon="16.7872417"><ele>76.0</ele><time>2026-03-22T08:29:06.982Z</time></trkpt><trkpt lat="41.0717717" lon="16.7872383"><ele>76.0</ele><time>2026-03-22T08:29:08.982Z</time></trkpt><trkpt lat="41.071665" lon="16.7872417"><ele>76.0</ele><time>2026-03-22T08:29:10.982Z</time></trkpt><trkpt lat="41.0715483" lon="16.78725"><ele>76.6</ele><time>2026-03-22T08:29:12.982Z</time></trkpt><trkpt lat="41.0714283" lon="16.7872533"><ele>77.19999999999999</ele><time>2026-03-22T08:29:14.982Z</time></trkpt><trkpt lat="41.07131" lon="16.7872567"><ele>77.80000000000001</ele><time>2026-03-22T08:29:16.982Z</time></trkpt><trkpt lat="41.0712033" lon="16.7872617"><ele>78.4</ele><time>2026-03-22T08:29:18.982Z</time></trkpt><trkpt lat="41.0711067" lon="16.7872683"><ele>79.0</ele><time>2026-03-22T08:29:20.982Z</time></trkpt><trkpt lat="41.0710133" lon="16.7872667"><ele>79.0</ele><time>2026-03-22T08:29:22.982Z</time></trkpt><trkpt lat="41.0709233" lon="16.7872667"><ele>79.0</ele><time>2026-03-22T08:29:24.982Z</time></trkpt><trkpt lat="41.070835" lon="16.7872717"><ele>79.0</ele><time>2026-03-22T08:29:26.982Z</time></trkpt><trkpt lat="41.0707517" lon="16.7873017"><ele>79.0</ele><time>2026-03-22T08:29:28.982Z</time></trkpt><trkpt lat="41.0706733" lon="16.7873433"><ele>79.0</ele><time>2026-03-22T08:29:30.982Z</time></trkpt><trkpt lat="41.0706" lon="16.7874017"><ele>79.0</ele><time>2026-03-22T08:29:32.982Z</time></trkpt><trkpt lat="41.0705267" lon="16.78747"><ele>79.16666666666666</ele><time>2026-03-22T08:29:34.982Z</time></trkpt><trkpt lat="41.0704617" lon="16.7875333"><ele>79.33333333333333</ele><time>2026-03-22T08:29:36.982Z</time></trkpt><trkpt lat="41.070395" lon="16.787595"><ele>79.5</ele><time>2026-03-22T08:29:38.982Z</time></trkpt><trkpt lat="41.070325" lon="16.7876567"><ele>79.66666666666667</ele><time>2026-03-22T08:29:40.982Z</time></trkpt><trkpt lat="41.07026" lon="16.7877217"><ele>79.83333333333334</ele><time>2026-03-22T08:29:42.982Z</time></trkpt><trkpt lat="41.070195" lon="16.7877867"><ele>80.0</ele><time>2026-03-22T08:29:44.982Z</time></trkpt><trkpt lat="41.070125" lon="16.7878433"><ele>80.0</ele><time>2026-03-22T08:29:46.982Z</time></trkpt><trkpt lat="41.07004" lon="16.787895"><ele>80.0</ele><time>2026-03-22T08:29:48.982Z</time></trkpt><trkpt lat="41.0699567" lon="16.7879467"><ele>80.0</ele><time>2026-03-22T08:29:50.982Z</time></trkpt><trkpt lat="41.069865" lon="16.787995"><ele>80.0</ele><time>2026-03-22T08:29:52.982Z</time></trkpt><trkpt lat="41.06977" lon="16.788045"><ele>80.0</ele><time>2026-03-22T08:29:54.982Z</time></trkpt><trkpt lat="41.069675" lon="16.788105"><ele>79.5</ele><time>2026-03-22T08:29:56.982Z</time></trkpt><trkpt lat="41.0695733" lon="16.78817"><ele>79.0</ele><time>2026-03-22T08:29:58.982Z</time></trkpt><trkpt lat="41.0694667" lon="16.7882517"><ele>78.5</ele><time>2026-03-22T08:30:00.982Z</time></trkpt><trkpt lat="41.069405" lon="16.788295"><ele>78.0</ele><time>2026-03-22T08:30:01.982Z</time></trkpt><trkpt lat="41.06935" lon="16.7883533"><ele>77.5</ele><time>2026-03-22T08:30:02.982Z</time></trkpt><trkpt lat="41.069305" lon="16.7884233"><ele>77.0</ele><time>2026-03-22T08:30:03.982Z</time></trkpt><trkpt lat="41.06927" lon="16.7884983"><ele>77.28571428571429</ele><time>2026-03-22T08:30:04.982Z</time></trkpt><trkpt lat="41.0692333" lon="16.78859"><ele>77.57142857142857</ele><time>2026-03-22T08:30:05.982Z</time></trkpt><trkpt lat="41.0692017" lon="16.7886833"><ele>77.85714285714286</ele><time>2026-03-22T08:30:06.982Z</time></trkpt><trkpt lat="41.06917" lon="16.788775"><ele>78.14285714285714</ele><time>2026-03-22T08:30:07.982Z</time></trkpt><trkpt lat="41.0691433" lon="16.7888683"><ele>78.42857142857143</ele><time>2026-03-22T08:30:08.982Z</time></trkpt><trkpt lat="41.0691117" lon="16.78895"><ele>78.71428571428572</ele><time>2026-03-22T08:30:09.982Z</time></trkpt><trkpt lat="41.069075" lon="16.7890267"><ele>79.0</ele><time>2026-03-22T08:30:10.982Z</time></trkpt><trkpt lat="41.069045" lon="16.789115"><ele>78.16666666666666</ele><time>2026-03-22T08:30:11.982Z</time></trkpt><trkpt lat="41.0690083" lon="16.7891983"><ele>77.33333333333333</ele><time>2026-03-22T08:30:12.982Z</time></trkpt><trkpt lat="41.0689567" lon="16.7892817"><ele>76.5</ele><time>2026-03-22T08:30:13.982Z</time></trkpt><trkpt lat="41.068885" lon="16.7893483"><ele>75.66666666666667</ele><time>2026-03-22T08:30:14.982Z</time></trkpt><trkpt lat="41.0687983" lon="16.789395"><ele>74.83333333333334</ele><time>2026-03-22T08:30:15.982Z</time></trkpt><trkpt lat="41.0687033" lon="16.7894067"><ele>74.0</ele><time>2026-03-22T08:30:16.982Z</time></trkpt><trkpt lat="41.06861" lon="16.7893967"><ele>74.0</ele><time>2026-03-22T08:30:17.982Z</time></trkpt><trkpt lat="41.068515" lon="16.7893783"><ele>74.0</ele><time>2026-03-22T08:30:18.982Z</time></trkpt><trkpt lat="41.0684267" lon="16.7893617"><ele>74.0</ele><time>2026-03-22T08:30:19.982Z</time></trkpt><trkpt lat="41.068335" lon="16.78935"><ele>74.0</ele><time>2026-03-22T08:30:20.982Z</time></trkpt><trkpt lat="41.0682467" lon="16.7893417"><ele>74.0</ele><time>2026-03-22T08:30:21.982Z</time></trkpt><trkpt lat="41.0681683" lon="16.7893333"><ele>74.0</ele><time>2026-03-22T08:30:22.982Z</time></trkpt><trkpt lat="41.068095" lon="16.78932"><ele>74.60000000000001</ele><time>2026-03-22T08:30:23.982Z</time></trkpt><trkpt lat="41.0680267" lon="16.7893067"><ele>75.2</ele><time>2026-03-22T08:30:24.982Z</time></trkpt><trkpt lat="41.06792" lon="16.7892883"><ele>75.80000000000001</ele><time>2026-03-22T08:30:26.982Z</time></trkpt><trkpt lat="41.0678117" lon="16.7892683"><ele>76.4</ele><time>2026-03-22T08:30:28.982Z</time></trkpt><trkpt lat="41.06771" lon="16.7892283"><ele>77.0</ele><time>2026-03-22T08:30:30.982Z</time></trkpt><trkpt lat="41.0676367" lon="16.78917"><ele>77.0</ele><time>2026-03-22T08:30:32.982Z</time></trkpt><trkpt lat="41.06756" lon="16.7891117"><ele>77.0</ele><time>2026-03-22T08:30:34.983Z</time></trkpt><trkpt lat="41.0674967" lon="16.78904"><ele>77.0</ele><time>2026-03-22T08:30:36.982Z</time></trkpt><trkpt lat="41.0674533" lon="16.78895"><ele>77.0</ele><time>2026-03-22T08:30:38.982Z</time></trkpt><trkpt lat="41.0674117" lon="16.78885"><ele>77.0</ele><time>2026-03-22T08:30:40.982Z</time></trkpt><trkpt lat="41.06738" lon="16.7887383"><ele>77.0</ele><time>2026-03-22T08:30:42.982Z</time></trkpt><trkpt lat="41.0673467" lon="16.7886267"><ele>77.5</ele><time>2026-03-22T08:30:44.983Z</time></trkpt><trkpt lat="41.067305" lon="16.7885267"><ele>78.0</ele><time>2026-03-22T08:30:46.982Z</time></trkpt><trkpt lat="41.067255" lon="16.7884267"><ele>78.5</ele><time>2026-03-22T08:30:48.982Z</time></trkpt><trkpt lat="41.0672033" lon="16.7883383"><ele>79.0</ele><time>2026-03-22T08:30:50.982Z</time></trkpt><trkpt lat="41.06714" lon="16.788265"><ele>79.5</ele><time>2026-03-22T08:30:52.982Z</time></trkpt><trkpt lat="41.0670633" lon="16.7882083"><ele>80.0</ele><time>2026-03-22T08:30:54.982Z</time></trkpt><trkpt lat="41.06698" lon="16.78816"><ele>80.0</ele><time>2026-03-22T08:30:56.982Z</time></trkpt><trkpt lat="41.06689" lon="16.7881067"><ele>80.0</ele><time>2026-03-22T08:30:58.982Z</time></trkpt><trkpt lat="41.0668067" lon="16.7880783"><ele>80.0</ele><time>2026-03-22T08:31:00.982Z</time></trkpt><trkpt lat="41.0667217" lon="16.78805"><ele>80.0</ele><time>2026-03-22T08:31:02.982Z</time></trkpt><trkpt lat="41.066635" lon="16.78805"><ele>80.0</ele><time>2026-03-22T08:31:04.982Z</time></trkpt><trkpt lat="41.0665483" lon="16.788065"><ele>80.0</ele><time>2026-03-22T08:31:06.982Z</time></trkpt><trkpt lat="41.066465" lon="16.7880967"><ele>79.83333333333334</ele><time>2026-03-22T08:31:08.983Z</time></trkpt><trkpt lat="41.0663833" lon="16.788155"><ele>79.66666666666667</ele><time>2026-03-22T08:31:10.982Z</time></trkpt><trkpt lat="41.06631" lon="16.788215"><ele>79.5</ele><time>2026-03-22T08:31:12.982Z</time></trkpt><trkpt lat="41.06625" lon="16.7883"><ele>79.33333333333333</ele><time>2026-03-22T08:31:14.982Z</time></trkpt><trkpt lat="41.0661933" lon="16.7883783"><ele>79.16666666666666</ele><time>2026-03-22T08:31:16.982Z</time></trkpt><trkpt lat="41.0661367" lon="16.7884617"><ele>79.0</ele><time>2026-03-22T08:31:18.982Z</time></trkpt><trkpt lat="41.066085" lon="16.7885383"><ele>79.42857142857143</ele><time>2026-03-22T08:31:20.982Z</time></trkpt><trkpt lat="41.06604" lon="16.7886167"><ele>79.85714285714286</ele><time>2026-03-22T08:31:22.982Z</time></trkpt><trkpt lat="41.0659983" lon="16.78869"><ele>80.28571428571428</ele><time>2026-03-22T08:31:24.982Z</time></trkpt><trkpt lat="41.0659483" lon="16.7887633"><ele>80.71428571428572</ele><time>2026-03-22T08:31:26.982Z</time></trkpt><trkpt lat="41.065905" lon="16.7888367"><ele>81.14285714285714</ele><time>2026-03-22T08:31:28.982Z</time></trkpt><trkpt lat="41.0658567" lon="16.7889083"><ele>81.57142857142857</ele><time>2026-03-22T08:31:30.982Z</time></trkpt><trkpt lat="41.0658117" lon="16.788975"><ele>82.0</ele><time>2026-03-22T08:31:32.982Z</time></trkpt><trkpt lat="41.0657533" lon="16.7890483"><ele>82.16666666666666</ele><time>2026-03-22T08:31:34.982Z</time></trkpt><trkpt lat="41.06569" lon="16.78912"><ele>82.33333333333333</ele><time>2026-03-22T08:31:36.982Z</time></trkpt><trkpt lat="41.0656317" lon="16.78919"><ele>82.5</ele><time>2026-03-22T08:31:38.982Z</time></trkpt><trkpt lat="41.06557" lon="16.78925"><ele>82.66666666666667</ele><time>2026-03-22T08:31:40.982Z</time></trkpt><trkpt lat="41.0655083" lon="16.7893083"><ele>82.83333333333334</ele><time>2026-03-22T08:31:42.982Z</time></trkpt><trkpt lat="41.0654467" lon="16.7893783"><ele>83.0</ele><time>2026-03-22T08:31:44.982Z</time></trkpt><trkpt lat="41.0653917" lon="16.7894517"><ele>83.33333333333334</ele><time>2026-03-22T08:31:46.982Z</time></trkpt><trkpt lat="41.0653283" lon="16.7895183"><ele>83.66666666666667</ele><time>2026-03-22T08:31:48.982Z</time></trkpt><trkpt lat="41.0652683" lon="16.78959"><ele>84.0</ele><time>2026-03-22T08:31:50.982Z</time></trkpt><trkpt lat="41.0651967" lon="16.7896883"><ele>84.33333333333333</ele><time>2026-03-22T08:31:53.982Z</time></trkpt><trkpt lat="41.06513" lon="16.7897667"><ele>84.66666666666666</ele><time>2026-03-22T08:31:55.982Z</time></trkpt><trkpt lat="41.06507" lon="16.7898433"><ele>85.0</ele><time>2026-03-22T08:31:57.982Z</time></trkpt><trkpt lat="41.0650067" lon="16.7899083"><ele>85.0</ele><time>2026-03-22T08:31:59.982Z</time></trkpt><trkpt lat="41.0649417" lon="16.7899783"><ele>85.0</ele><time>2026-03-22T08:32:01.982Z</time></trkpt><trkpt lat="41.0648767" lon="16.79006"><ele>85.0</ele><time>2026-03-22T08:32:03.982Z</time></trkpt><trkpt lat="41.0648133" lon="16.7901283"><ele>85.0</ele><time>2026-03-22T08:32:05.982Z</time></trkpt><trkpt lat="41.0647483" lon="16.7902017"><ele>85.0</ele><time>2026-03-22T08:32:07.982Z</time></trkpt><trkpt lat="41.06469" lon="16.790275"><ele>85.0</ele><time>2026-03-22T08:32:09.982Z</time></trkpt><trkpt lat="41.0646283" lon="16.7903417"><ele>85.33333333333333</ele><time>2026-03-22T08:32:11.982Z</time></trkpt><trkpt lat="41.064565" lon="16.7904117"><ele>85.66666666666666</ele><time>2026-03-22T08:32:13.983Z</time></trkpt><trkpt lat="41.0644967" lon="16.7904767"><ele>86.0</ele><time>2026-03-22T08:32:15.982Z</time></trkpt><trkpt lat="41.06442" lon="16.79053"><ele>86.33333333333333</ele><time>2026-03-22T08:32:17.982Z</time></trkpt><trkpt lat="41.0643467" lon="16.7905767"><ele>86.66666666666667</ele><time>2026-03-22T08:32:19.982Z</time></trkpt><trkpt lat="41.064275" lon="16.7906133"><ele>87.0</ele><time>2026-03-22T08:32:21.982Z</time></trkpt><trkpt lat="41.0642033" lon="16.7906383"><ele>87.0</ele><time>2026-03-22T08:32:23.982Z</time></trkpt><trkpt lat="41.0641217" lon="16.7906567"><ele>87.0</ele><time>2026-03-22T08:32:25.982Z</time></trkpt><trkpt lat="41.064035" lon="16.7906567"><ele>87.0</ele><time>2026-03-22T08:32:27.982Z</time></trkpt><trkpt lat="41.0639583" lon="16.7906517"><ele>87.0</ele><time>2026-03-22T08:32:29.982Z</time></trkpt><trkpt lat="41.0638717" lon="16.79063"><ele>87.0</ele><time>2026-03-22T08:32:31.982Z</time></trkpt><trkpt lat="41.0637883" lon="16.7906133"><ele>87.0</ele><time>2026-03-22T08:32:33.982Z</time></trkpt><trkpt lat="41.063705" lon="16.7905933"><ele>87.0</ele><time>2026-03-22T08:32:35.982Z</time></trkpt><trkpt lat="41.0636183" lon="16.7905733"><ele>87.0</ele><time>2026-03-22T08:32:37.982Z</time></trkpt><trkpt lat="41.0635333" lon="16.7905533"><ele>87.0</ele><time>2026-03-22T08:32:39.982Z</time></trkpt><trkpt lat="41.06345" lon="16.79053"><ele>87.0</ele><time>2026-03-22T08:32:41.982Z</time></trkpt><trkpt lat="41.0633633" lon="16.7905083"><ele>87.0</ele><time>2026-03-22T08:32:43.982Z</time></trkpt><trkpt lat="41.0632833" lon="16.7904767"><ele>87.0</ele><time>2026-03-22T08:32:45.982Z</time></trkpt><trkpt lat="41.0632033" lon="16.790455"><ele>87.0</ele><time>2026-03-22T08:32:47.982Z</time></trkpt><trkpt lat="41.06312" lon="16.7904417"><ele>87.0</ele><time>2026-03-22T08:32:49.982Z</time></trkpt><trkpt lat="41.0630333" lon="16.7904233"><ele>87.0</ele><time>2026-03-22T08:32:51.982Z</time></trkpt><trkpt lat="41.0629567" lon="16.7904"><ele>87.0</ele><time>2026-03-22T08:32:53.982Z</time></trkpt><trkpt lat="41.0628783" lon="16.7903817"><ele>87.0</ele><time>2026-03-22T08:32:55.982Z</time></trkpt><trkpt lat="41.0628" lon="16.7903633"><ele>87.0</ele><time>2026-03-22T08:32:57.982Z</time></trkpt><trkpt lat="41.06272" lon="16.79034"><ele>87.0</ele><time>2026-03-22T08:32:59.982Z</time></trkpt><trkpt lat="41.0626483" lon="16.79032"><ele>87.0</ele><time>2026-03-22T08:33:01.982Z</time></trkpt><trkpt lat="41.0625717" lon="16.790295"><ele>87.0</ele><time>2026-03-22T08:33:03.982Z</time></trkpt><trkpt lat="41.0624917" lon="16.7902717"><ele>87.0</ele><time>2026-03-22T08:33:05.982Z</time></trkpt><trkpt lat="41.0624167" lon="16.7902433"><ele>87.0</ele><time>2026-03-22T08:33:07.982Z</time></trkpt><trkpt lat="41.0623417" lon="16.7902267"><ele>87.0</ele><time>2026-03-22T08:33:09.982Z</time></trkpt><trkpt lat="41.062265" lon="16.79021"><ele>87.33333333333333</ele><time>2026-03-22T08:33:11.982Z</time></trkpt><trkpt lat="41.0621917" lon="16.7901833"><ele>87.66666666666667</ele><time>2026-03-22T08:33:13.982Z</time></trkpt><trkpt lat="41.062115" lon="16.7901567"><ele>88.0</ele><time>2026-03-22T08:33:15.982Z</time></trkpt><trkpt lat="41.062045" lon="16.790125"><ele>88.33333333333334</ele><time>2026-03-22T08:33:17.982Z</time></trkpt><trkpt lat="41.0619817" lon="16.79008"><ele>88.66666666666667</ele><time>2026-03-22T08:33:19.982Z</time></trkpt><trkpt lat="41.0619217" lon="16.7900317"><ele>89.0</ele><time>2026-03-22T08:33:21.982Z</time></trkpt><trkpt lat="41.0618583" lon="16.78997"><ele>89.0</ele><time>2026-03-22T08:33:23.982Z</time></trkpt><trkpt lat="41.0617883" lon="16.7899183"><ele>89.0</ele><time>2026-03-22T08:33:25.982Z</time></trkpt><trkpt lat="41.061705" lon="16.7898933"><ele>89.0</ele><time>2026-03-22T08:33:27.982Z</time></trkpt><trkpt lat="41.0616233" lon="16.7899117"><ele>89.0</ele><time>2026-03-22T08:33:29.982Z</time></trkpt><trkpt lat="41.0615483" lon="16.7899467"><ele>89.0</ele><time>2026-03-22T08:33:31.982Z</time></trkpt><trkpt lat="41.06147" lon="16.7899617"><ele>89.0</ele><time>2026-03-22T08:33:33.982Z</time></trkpt><trkpt lat="41.0613867" lon="16.7899583"><ele>89.16666666666667</ele><time>2026-03-22T08:33:35.982Z</time></trkpt><trkpt lat="41.0613067" lon="16.78995"><ele>89.33333333333334</ele><time>2026-03-22T08:33:37.982Z</time></trkpt><trkpt lat="41.0612233" lon="16.7899433"><ele>89.5</ele><time>2026-03-22T08:33:39.982Z</time></trkpt><trkpt lat="41.0611383" lon="16.7899333"><ele>89.66666666666667</ele><time>2026-03-22T08:33:41.982Z</time></trkpt><trkpt lat="41.0610567" lon="16.789925"><ele>89.83333333333333</ele><time>2026-03-22T08:33:43.982Z</time></trkpt><trkpt lat="41.0609767" lon="16.7899017"><ele>90.0</ele><time>2026-03-22T08:33:45.982Z</time></trkpt><trkpt lat="41.06089" lon="16.7898983"><ele>90.0</ele><time>2026-03-22T08:33:47.982Z</time></trkpt><trkpt lat="41.0608117" lon="16.78988"><ele>90.0</ele><time>2026-03-22T08:33:49.982Z</time></trkpt><trkpt lat="41.0607383" lon="16.7898633"><ele>90.0</ele><time>2026-03-22T08:33:51.982Z</time></trkpt><trkpt lat="41.0606583" lon="16.7898583"><ele>90.0</ele><time>2026-03-22T08:33:53.982Z</time></trkpt><trkpt lat="41.0605783" lon="16.7898617"><ele>90.0</ele><time>2026-03-22T08:33:55.982Z</time></trkpt><trkpt lat="41.0605" lon="16.7898683"><ele>90.0</ele><time>2026-03-22T08:33:57.982Z</time></trkpt><trkpt lat="41.06042" lon="16.7898617"><ele>90.0</ele><time>2026-03-22T08:33:59.982Z</time></trkpt><trkpt lat="41.0603367" lon="16.7898667"><ele>90.0</ele><time>2026-03-22T08:34:01.982Z</time></trkpt><trkpt lat="41.060255" lon="16.7898717"><ele>90.0</ele><time>2026-03-22T08:34:03.982Z</time></trkpt><trkpt lat="41.060165" lon="16.7898717"><ele>90.0</ele><time>2026-03-22T08:34:05.982Z</time></trkpt><trkpt lat="41.06008" lon="16.7898733"><ele>90.0</ele><time>2026-03-22T08:34:07.982Z</time></trkpt><trkpt lat="41.0599967" lon="16.7898767"><ele>90.0</ele><time>2026-03-22T08:34:09.982Z</time></trkpt><trkpt lat="41.0599083" lon="16.7898817"><ele>90.16666666666667</ele><time>2026-03-22T08:34:11.982Z</time></trkpt><trkpt lat="41.05982" lon="16.7899017"><ele>90.33333333333333</ele><time>2026-03-22T08:34:13.982Z</time></trkpt><trkpt lat="41.059735" lon="16.7899183"><ele>90.5</ele><time>2026-03-22T08:34:15.982Z</time></trkpt><trkpt lat="41.0596467" lon="16.7899417"><ele>90.66666666666666</ele><time>2026-03-22T08:34:17.982Z</time></trkpt><trkpt lat="41.05956" lon="16.7899567"><ele>90.83333333333333</ele><time>2026-03-22T08:34:19.982Z</time></trkpt><trkpt lat="41.05948" lon="16.7899833"><ele>91.0</ele><time>2026-03-22T08:34:21.982Z</time></trkpt><trkpt lat="41.059395" lon="16.79"><ele>91.0</ele><time>2026-03-22T08:34:23.982Z</time></trkpt><trkpt lat="41.05931" lon="16.790025"><ele>91.0</ele><time>2026-03-22T08:34:25.982Z</time></trkpt><trkpt lat="41.05923" lon="16.7900567"><ele>91.0</ele><time>2026-03-22T08:34:27.982Z</time></trkpt><trkpt lat="41.05914" lon="16.7900833"><ele>91.0</ele><time>2026-03-22T08:34:29.982Z</time></trkpt><trkpt lat="41.0590533" lon="16.7901067"><ele>91.0</ele><time>2026-03-22T08:34:31.982Z</time></trkpt><trkpt lat="41.0589767" lon="16.7901433"><ele>91.0</ele><time>2026-03-22T08:34:33.982Z</time></trkpt><trkpt lat="41.058895" lon="16.7901817"><ele>91.0</ele><time>2026-03-22T08:34:35.982Z</time></trkpt><trkpt lat="41.058815" lon="16.790225"><ele>91.0</ele><time>2026-03-22T08:34:37.982Z</time></trkpt><trkpt lat="41.0587333" lon="16.7902733"><ele>91.0</ele><time>2026-03-22T08:34:39.982Z</time></trkpt><trkpt lat="41.0586467" lon="16.790315"><ele>91.0</ele><time>2026-03-22T08:34:41.982Z</time></trkpt><trkpt lat="41.0585667" lon="16.7903533"><ele>91.0</ele><time>2026-03-22T08:34:43.982Z</time></trkpt><trkpt lat="41.0584867" lon="16.7903967"><ele>91.0</ele><time>2026-03-22T08:34:45.982Z</time></trkpt><trkpt lat="41.0584117" lon="16.79044"><ele>91.0</ele><time>2026-03-22T08:34:47.982Z</time></trkpt><trkpt lat="41.0583317" lon="16.7904817"><ele>91.0</ele><time>2026-03-22T08:34:49.982Z</time></trkpt><trkpt lat="41.058255" lon="16.7905283"><ele>91.0</ele><time>2026-03-22T08:34:51.982Z</time></trkpt><trkpt lat="41.0581767" lon="16.7905583"><ele>91.0</ele><time>2026-03-22T08:34:53.982Z</time></trkpt><trkpt lat="41.0580917" lon="16.7905983"><ele>91.0</ele><time>2026-03-22T08:34:55.982Z</time></trkpt><trkpt lat="41.0580083" lon="16.7906483"><ele>91.0</ele><time>2026-03-22T08:34:57.983Z</time></trkpt><trkpt lat="41.0579283" lon="16.79069"><ele>91.16666666666666</ele><time>2026-03-22T08:34:59.982Z</time></trkpt><trkpt lat="41.0578483" lon="16.7907367"><ele>91.33333333333333</ele><time>2026-03-22T08:35:01.982Z</time></trkpt><trkpt lat="41.0577683" lon="16.7907867"><ele>91.5</ele><time>2026-03-22T08:35:03.982Z</time></trkpt><trkpt lat="41.0576917" lon="16.79083"><ele>91.66666666666667</ele><time>2026-03-22T08:35:05.982Z</time></trkpt><trkpt lat="41.0576067" lon="16.7908733"><ele>91.83333333333334</ele><time>2026-03-22T08:35:07.982Z</time></trkpt><trkpt lat="41.0575267" lon="16.790925"><ele>92.0</ele><time>2026-03-22T08:35:09.982Z</time></trkpt><trkpt lat="41.0574517" lon="16.7909667"><ele>92.0</ele><time>2026-03-22T08:35:11.982Z</time></trkpt><trkpt lat="41.057375" lon="16.7910183"><ele>92.0</ele><time>2026-03-22T08:35:13.982Z</time></trkpt><trkpt lat="41.057285" lon="16.7910683"><ele>92.0</ele><time>2026-03-22T08:35:15.982Z</time></trkpt><trkpt lat="41.0572" lon="16.7911183"><ele>92.0</ele><time>2026-03-22T08:35:17.982Z</time></trkpt><trkpt lat="41.0571217" lon="16.7911733"><ele>92.0</ele><time>2026-03-22T08:35:19.982Z</time></trkpt><trkpt lat="41.0570417" lon="16.7912133"><ele>92.0</ele><time>2026-03-22T08:35:21.982Z</time></trkpt><trkpt lat="41.0569667" lon="16.7912617"><ele>92.0</ele><time>2026-03-22T08:35:23.982Z</time></trkpt><trkpt lat="41.0568883" lon="16.791315"><ele>92.0</ele><time>2026-03-22T08:35:25.983Z</time></trkpt><trkpt lat="41.056805" lon="16.7913633"><ele>92.0</ele><time>2026-03-22T08:35:27.982Z</time></trkpt><trkpt lat="41.05673" lon="16.791415"><ele>92.0</ele><time>2026-03-22T08:35:29.982Z</time></trkpt><trkpt lat="41.056655" lon="16.7914683"><ele>92.0</ele><time>2026-03-22T08:35:31.982Z</time></trkpt><trkpt lat="41.05658" lon="16.7915233"><ele>92.16666666666667</ele><time>2026-03-22T08:35:33.982Z</time></trkpt><trkpt lat="41.0565117" lon="16.7915933"><ele>92.33333333333334</ele><time>2026-03-22T08:35:35.983Z</time></trkpt><trkpt lat="41.0564333" lon="16.7916583"><ele>92.5</ele><time>2026-03-22T08:35:37.982Z</time></trkpt><trkpt lat="41.0563683" lon="16.7917367"><ele>92.66666666666667</ele><time>2026-03-22T08:35:39.982Z</time></trkpt><trkpt lat="41.0563" lon="16.79181"><ele>92.83333333333333</ele><time>2026-03-22T08:35:41.982Z</time></trkpt><trkpt lat="41.05623" lon="16.7918867"><ele>93.0</ele><time>2026-03-22T08:35:43.982Z</time></trkpt><trkpt lat="41.0561633" lon="16.791975"><ele>93.0</ele><time>2026-03-22T08:35:45.982Z</time></trkpt><trkpt lat="41.0561033" lon="16.7920533"><ele>93.0</ele><time>2026-03-22T08:35:47.982Z</time></trkpt><trkpt lat="41.05604" lon="16.7921367"><ele>93.0</ele><time>2026-03-22T08:35:49.982Z</time></trkpt><trkpt lat="41.055975" lon="16.79222"><ele>93.0</ele><time>2026-03-22T08:35:51.982Z</time></trkpt><trkpt lat="41.0559183" lon="16.7923017"><ele>93.0</ele><time>2026-03-22T08:35:53.983Z</time></trkpt><trkpt lat="41.0558633" lon="16.7923883"><ele>93.0</ele><time>2026-03-22T08:35:55.982Z</time></trkpt><trkpt lat="41.0558017" lon="16.7924783"><ele>93.0</ele><time>2026-03-22T08:35:57.982Z</time></trkpt><trkpt lat="41.0557333" lon="16.79257"><ele>93.0</ele><time>2026-03-22T08:35:59.982Z</time></trkpt><trkpt lat="41.05567" lon="16.7926633"><ele>93.0</ele><time>2026-03-22T08:36:01.982Z</time></trkpt><trkpt lat="41.05561" lon="16.7927583"><ele>93.0</ele><time>2026-03-22T08:36:03.982Z</time></trkpt><trkpt lat="41.05555" lon="16.79285"><ele>93.0</ele><time>2026-03-22T08:36:05.982Z</time></trkpt><trkpt lat="41.0554867" lon="16.7929467"><ele>92.2</ele><time>2026-03-22T08:36:07.982Z</time></trkpt><trkpt lat="41.0554283" lon="16.7930483"><ele>91.4</ele><time>2026-03-22T08:36:09.982Z</time></trkpt><trkpt lat="41.0553617" lon="16.79315"><ele>90.60000000000001</ele><time>2026-03-22T08:36:11.982Z</time></trkpt><trkpt lat="41.05529" lon="16.7932433"><ele>89.80000000000001</ele><time>2026-03-22T08:36:13.982Z</time></trkpt><trkpt lat="41.0552183" lon="16.79331"><ele>89.0</ele><time>2026-03-22T08:36:15.982Z</time></trkpt><trkpt lat="41.0551367" lon="16.7933867"><ele>89.0</ele><time>2026-03-22T08:36:17.982Z</time></trkpt><trkpt lat="41.05506" lon="16.7934683"><ele>89.0</ele><time>2026-03-22T08:36:19.982Z</time></trkpt><trkpt lat="41.0549617" lon="16.7935267"><ele>89.0</ele><time>2026-03-22T08:36:21.982Z</time></trkpt><trkpt lat="41.0548717" lon="16.7935817"><ele>89.0</ele><time>2026-03-22T08:36:23.982Z</time></trkpt><trkpt lat="41.0547817" lon="16.7936267"><ele>89.0</ele><time>2026-03-22T08:36:25.982Z</time></trkpt><trkpt lat="41.0546933" lon="16.793685"><ele>89.6</ele><time>2026-03-22T08:36:27.982Z</time></trkpt><trkpt lat="41.054605" lon="16.7937267"><ele>90.2</ele><time>2026-03-22T08:36:29.982Z</time></trkpt><trkpt lat="41.054515" lon="16.79378"><ele>90.8</ele><time>2026-03-22T08:36:31.982Z</time></trkpt><trkpt lat="41.0544333" lon="16.7938217"><ele>91.39999999999999</ele><time>2026-03-22T08:36:33.982Z</time></trkpt><trkpt lat="41.0543433" lon="16.7938467"><ele>92.0</ele><time>2026-03-22T08:36:35.982Z</time></trkpt><trkpt lat="41.05426" lon="16.79388"><ele>92.0</ele><time>2026-03-22T08:36:37.982Z</time></trkpt><trkpt lat="41.0541783" lon="16.7939"><ele>92.0</ele><time>2026-03-22T08:36:39.982Z</time></trkpt><trkpt lat="41.0541017" lon="16.7939217"><ele>92.0</ele><time>2026-03-22T08:36:41.983Z</time></trkpt><trkpt lat="41.0540133" lon="16.7939433"><ele>92.0</ele><time>2026-03-22T08:36:43.983Z</time></trkpt><trkpt lat="41.0539283" lon="16.7939617"><ele>92.0</ele><time>2026-03-22T08:36:45.983Z</time></trkpt><trkpt lat="41.0538467" lon="16.7939733"><ele>92.0</ele><time>2026-03-22T08:36:47.983Z</time></trkpt><trkpt lat="41.05377" lon="16.79399"><ele>92.5</ele><time>2026-03-22T08:36:49.983Z</time></trkpt><trkpt lat="41.0536967" lon="16.794015"><ele>93.0</ele><time>2026-03-22T08:36:51.983Z</time></trkpt><trkpt lat="41.05362" lon="16.79404"><ele>93.5</ele><time>2026-03-22T08:36:53.983Z</time></trkpt><trkpt lat="41.0535433" lon="16.7940583"><ele>94.0</ele><time>2026-03-22T08:36:55.983Z</time></trkpt><trkpt lat="41.0534617" lon="16.7940717"><ele>94.5</ele><time>2026-03-22T08:36:57.983Z</time></trkpt><trkpt lat="41.053375" lon="16.7940917"><ele>95.0</ele><time>2026-03-22T08:36:59.983Z</time></trkpt><trkpt lat="41.05329" lon="16.79411"><ele>95.0</ele><time>2026-03-22T08:37:01.983Z</time></trkpt><trkpt lat="41.0532117" lon="16.7941183"><ele>95.0</ele><time>2026-03-22T08:37:03.983Z</time></trkpt><trkpt lat="41.0531333" lon="16.7941383"><ele>95.0</ele><time>2026-03-22T08:37:05.983Z</time></trkpt><trkpt lat="41.053045" lon="16.794155"><ele>95.0</ele><time>2026-03-22T08:37:07.983Z</time></trkpt><trkpt lat="41.0529583" lon="16.7941717"><ele>95.0</ele><time>2026-03-22T08:37:09.983Z</time></trkpt><trkpt lat="41.0528767" lon="16.79419"><ele>95.0</ele><time>2026-03-22T08:37:11.983Z</time></trkpt><trkpt lat="41.0528017" lon="16.794205"><ele>95.0</ele><time>2026-03-22T08:37:13.983Z</time></trkpt><trkpt lat="41.05272" lon="16.7942233"><ele>95.0</ele><time>2026-03-22T08:37:15.983Z</time></trkpt><trkpt lat="41.052635" lon="16.794245"><ele>95.0</ele><time>2026-03-22T08:37:17.983Z</time></trkpt><trkpt lat="41.05255" lon="16.794255"><ele>95.0</ele><time>2026-03-22T08:37:19.983Z</time></trkpt><trkpt lat="41.0524733" lon="16.794275"><ele>95.0</ele><time>2026-03-22T08:37:21.983Z</time></trkpt><trkpt lat="41.052395" lon="16.794295"><ele>95.0</ele><time>2026-03-22T08:37:23.983Z</time></trkpt><trkpt lat="41.052325" lon="16.79431"><ele>95.16666666666667</ele><time>2026-03-22T08:37:25.983Z</time></trkpt><trkpt lat="41.0522467" lon="16.7943217"><ele>95.33333333333334</ele><time>2026-03-22T08:37:27.983Z</time></trkpt><trkpt lat="41.0521617" lon="16.79435"><ele>95.5</ele><time>2026-03-22T08:37:29.983Z</time></trkpt><trkpt lat="41.0520783" lon="16.7943717"><ele>95.66666666666667</ele><time>2026-03-22T08:37:31.983Z</time></trkpt><trkpt lat="41.0520017" lon="16.7943883"><ele>95.83333333333333</ele><time>2026-03-22T08:37:33.983Z</time></trkpt><trkpt lat="41.051925" lon="16.7944067"><ele>96.0</ele><time>2026-03-22T08:37:35.983Z</time></trkpt><trkpt lat="41.051845" lon="16.7944233"><ele>96.0</ele><time>2026-03-22T08:37:37.984Z</time></trkpt><trkpt lat="41.0517617" lon="16.7944367"><ele>96.0</ele><time>2026-03-22T08:37:39.983Z</time></trkpt><trkpt lat="41.0516817" lon="16.7944583"><ele>96.0</ele><time>2026-03-22T08:37:41.983Z</time></trkpt><trkpt lat="41.051605" lon="16.7944783"><ele>96.0</ele><time>2026-03-22T08:37:43.983Z</time></trkpt><trkpt lat="41.0515267" lon="16.7945033"><ele>96.0</ele><time>2026-03-22T08:37:45.983Z</time></trkpt><trkpt lat="41.0514467" lon="16.7945217"><ele>96.0</ele><time>2026-03-22T08:37:47.983Z</time></trkpt><trkpt lat="41.0513667" lon="16.7945333"><ele>96.0</ele><time>2026-03-22T08:37:49.984Z</time></trkpt><trkpt lat="41.051285" lon="16.7945467"><ele>96.0</ele><time>2026-03-22T08:37:51.983Z</time></trkpt><trkpt lat="41.0512067" lon="16.7945667"><ele>96.0</ele><time>2026-03-22T08:37:53.983Z</time></trkpt><trkpt lat="41.0511267" lon="16.7945817"><ele>96.0</ele><time>2026-03-22T08:37:55.983Z</time></trkpt><trkpt lat="41.051045" lon="16.7945917"><ele>96.0</ele><time>2026-03-22T08:37:57.984Z</time></trkpt><trkpt lat="41.0509667" lon="16.7946067"><ele>96.0</ele><time>2026-03-22T08:37:59.983Z</time></trkpt><trkpt lat="41.0508867" lon="16.7946083"><ele>96.0</ele><time>2026-03-22T08:38:01.983Z</time></trkpt><trkpt lat="41.0508033" lon="16.7946183"><ele>96.0</ele><time>2026-03-22T08:38:03.983Z</time></trkpt><trkpt lat="41.0507233" lon="16.794625"><ele>96.0</ele><time>2026-03-22T08:38:05.983Z</time></trkpt><trkpt lat="41.05064" lon="16.7946267"><ele>96.0</ele><time>2026-03-22T08:38:07.983Z</time></trkpt><trkpt lat="41.0505583" lon="16.79464"><ele>96.0</ele><time>2026-03-22T08:38:09.983Z</time></trkpt><trkpt lat="41.0504783" lon="16.7946533"><ele>96.0</ele><time>2026-03-22T08:38:11.984Z</time></trkpt><trkpt lat="41.0504" lon="16.79466"><ele>96.0</ele><time>2026-03-22T08:38:13.983Z</time></trkpt><trkpt lat="41.05032" lon="16.7946733"><ele>96.0</ele><time>2026-03-22T08:38:15.983Z</time></trkpt><trkpt lat="41.050245" lon="16.794685"><ele>96.0</ele><time>2026-03-22T08:38:17.983Z</time></trkpt><trkpt lat="41.0501667" lon="16.794695"><ele>96.0</ele><time>2026-03-22T08:38:19.983Z</time></trkpt><trkpt lat="41.0500817" lon="16.7947033"><ele>96.0</ele><time>2026-03-22T08:38:21.983Z</time></trkpt><trkpt lat="41.05" lon="16.79471"><ele>96.0</ele><time>2026-03-22T08:38:23.983Z</time></trkpt><trkpt lat="41.049925" lon="16.7947133"><ele>96.16666666666667</ele><time>2026-03-22T08:38:25.983Z</time></trkpt><trkpt lat="41.049845" lon="16.7947183"><ele>96.33333333333334</ele><time>2026-03-22T08:38:27.983Z</time></trkpt><trkpt lat="41.049765" lon="16.7947167"><ele>96.5</ele><time>2026-03-22T08:38:29.983Z</time></trkpt><trkpt lat="41.0496817" lon="16.7947133"><ele>96.66666666666667</ele><time>2026-03-22T08:38:31.983Z</time></trkpt><trkpt lat="41.0496033" lon="16.7947083"><ele>96.83333333333334</ele><time>2026-03-22T08:38:33.983Z</time></trkpt><trkpt lat="41.0495267" lon="16.7946933"><ele>97.0</ele><time>2026-03-22T08:38:35.983Z</time></trkpt><trkpt lat="41.04945" lon="16.7946917"><ele>97.00000000000001</ele><time>2026-03-22T08:38:37.983Z</time></trkpt><trkpt lat="41.0493733" lon="16.7946867"><ele>97.0</ele><time>2026-03-22T08:38:39.983Z</time></trkpt><trkpt lat="41.0492867" lon="16.7946817"><ele>97.0</ele><time>2026-03-22T08:38:41.983Z</time></trkpt><trkpt lat="41.0492067" lon="16.7946733"><ele>97.0</ele><time>2026-03-22T08:38:43.983Z</time></trkpt><trkpt lat="41.0491283" lon="16.7946633"><ele>97.00000000000001</ele><time>2026-03-22T08:38:45.983Z</time></trkpt><trkpt lat="41.0490467" lon="16.7946417"><ele>97.0</ele><time>2026-03-22T08:38:47.983Z</time></trkpt><trkpt lat="41.0489667" lon="16.7946217"><ele>97.50000000000001</ele><time>2026-03-22T08:38:49.983Z</time></trkpt><trkpt lat="41.0488917" lon="16.7946067"><ele>98.0</ele><time>2026-03-22T08:38:51.984Z</time></trkpt><trkpt lat="41.0488217" lon="16.7945933"><ele>98.5</ele><time>2026-03-22T08:38:53.983Z</time></trkpt><trkpt lat="41.048745" lon="16.79457"><ele>99.0</ele><time>2026-03-22T08:38:55.983Z</time></trkpt><trkpt lat="41.0486633" lon="16.794555"><ele>99.50000000000001</ele><time>2026-03-22T08:38:57.983Z</time></trkpt><trkpt lat="41.0485817" lon="16.7945417"><ele>100.0</ele><time>2026-03-22T08:38:59.983Z</time></trkpt><trkpt lat="41.0485067" lon="16.7945217"><ele>100.00000000000001</ele><time>2026-03-22T08:39:01.983Z</time></trkpt><trkpt lat="41.0484333" lon="16.7945017"><ele>100.0</ele><time>2026-03-22T08:39:03.983Z</time></trkpt><trkpt lat="41.0483583" lon="16.794485"><ele>100.0</ele><time>2026-03-22T08:39:05.983Z</time></trkpt><trkpt lat="41.0482817" lon="16.7944667"><ele>100.0</ele><time>2026-03-22T08:39:07.983Z</time></trkpt><trkpt lat="41.0482033" lon="16.794455"><ele>100.00000000000001</ele><time>2026-03-22T08:39:09.983Z</time></trkpt><trkpt lat="41.0481283" lon="16.79444"><ele>100.0</ele><time>2026-03-22T08:39:11.983Z</time></trkpt><trkpt lat="41.0480567" lon="16.7944233"><ele>100.16666666666667</ele><time>2026-03-22T08:39:13.983Z</time></trkpt><trkpt lat="41.047975" lon="16.794425"><ele>100.33333333333334</ele><time>2026-03-22T08:39:15.983Z</time></trkpt><trkpt lat="41.0478933" lon="16.7944117"><ele>100.5</ele><time>2026-03-22T08:39:17.983Z</time></trkpt><trkpt lat="41.04781" lon="16.7944117"><ele>100.66666666666666</ele><time>2026-03-22T08:39:19.983Z</time></trkpt><trkpt lat="41.0477333" lon="16.7944133"><ele>100.83333333333333</ele><time>2026-03-22T08:39:21.983Z</time></trkpt><trkpt lat="41.0476517" lon="16.79442"><ele>101.0</ele><time>2026-03-22T08:39:23.983Z</time></trkpt><trkpt lat="41.0475717" lon="16.7944183"><ele>100.99999999999999</ele><time>2026-03-22T08:39:25.983Z</time></trkpt><trkpt lat="41.0474967" lon="16.7944283"><ele>101.0</ele><time>2026-03-22T08:39:27.984Z</time></trkpt><trkpt lat="41.047425" lon="16.794435"><ele>101.0</ele><time>2026-03-22T08:39:29.983Z</time></trkpt><trkpt lat="41.0473483" lon="16.7944433"><ele>101.0</ele><time>2026-03-22T08:39:31.983Z</time></trkpt><trkpt lat="41.04727" lon="16.7944483"><ele>100.99999999999999</ele><time>2026-03-22T08:39:33.983Z</time></trkpt><trkpt lat="41.0471933" lon="16.7944683"><ele>101.0</ele><time>2026-03-22T08:39:35.983Z</time></trkpt><trkpt lat="41.0471167" lon="16.7944883"><ele>100.99999999999999</ele><time>2026-03-22T08:39:37.983Z</time></trkpt><trkpt lat="41.04704" lon="16.794495"><ele>101.0</ele><time>2026-03-22T08:39:39.983Z</time></trkpt><trkpt lat="41.0469633" lon="16.7944917"><ele>101.0</ele><time>2026-03-22T08:39:41.983Z</time></trkpt><trkpt lat="41.0468883" lon="16.7945017"><ele>101.0</ele><time>2026-03-22T08:39:43.983Z</time></trkpt><trkpt lat="41.0468167" lon="16.794505"><ele>100.99999999999999</ele><time>2026-03-22T08:39:45.983Z</time></trkpt><trkpt lat="41.0467367" lon="16.7945117"><ele>101.0</ele><time>2026-03-22T08:39:47.983Z</time></trkpt><trkpt lat="41.0466617" lon="16.79451"><ele>101.49999999999999</ele><time>2026-03-22T08:39:49.983Z</time></trkpt><trkpt lat="41.0465817" lon="16.7945217"><ele>102.0</ele><time>2026-03-22T08:39:51.983Z</time></trkpt><trkpt lat="41.0464983" lon="16.7945067"><ele>102.5</ele><time>2026-03-22T08:39:53.983Z</time></trkpt><trkpt lat="41.046415" lon="16.7944933"><ele>103.0</ele><time>2026-03-22T08:39:55.983Z</time></trkpt><trkpt lat="41.0463333" lon="16.7944817"><ele>103.49999999999999</ele><time>2026-03-22T08:39:57.983Z</time></trkpt><trkpt lat="41.0462517" lon="16.7944667"><ele>104.0</ele><time>2026-03-22T08:39:59.983Z</time></trkpt><trkpt lat="41.0461767" lon="16.7944483"><ele>103.99999999999999</ele><time>2026-03-22T08:40:01.983Z</time></trkpt><trkpt lat="41.0461033" lon="16.7944383"><ele>104.0</ele><time>2026-03-22T08:40:03.983Z</time></trkpt><trkpt lat="41.0460317" lon="16.7944133"><ele>104.0</ele><time>2026-03-22T08:40:05.983Z</time></trkpt><trkpt lat="41.045965" lon="16.7943817"><ele>104.0</ele><time>2026-03-22T08:40:07.983Z</time></trkpt><trkpt lat="41.0458983" lon="16.7943417"><ele>103.99999999999999</ele><time>2026-03-22T08:40:09.983Z</time></trkpt><trkpt lat="41.045825" lon="16.7943033"><ele>104.0</ele><time>2026-03-22T08:40:11.983Z</time></trkpt><trkpt lat="41.0457533" lon="16.7942533"><ele>104.14285714285714</ele><time>2026-03-22T08:40:13.983Z</time></trkpt><trkpt lat="41.04569" lon="16.7942133"><ele>104.28571428571429</ele><time>2026-03-22T08:40:15.983Z</time></trkpt><trkpt lat="41.0456233" lon="16.794175"><ele>104.42857142857143</ele><time>2026-03-22T08:40:17.983Z</time></trkpt><trkpt lat="41.0455583" lon="16.79414"><ele>104.57142857142857</ele><time>2026-03-22T08:40:19.983Z</time></trkpt><trkpt lat="41.045495" lon="16.7941067"><ele>104.71428571428572</ele><time>2026-03-22T08:40:21.983Z</time></trkpt><trkpt lat="41.0454283" lon="16.7940717"><ele>104.85714285714286</ele><time>2026-03-22T08:40:23.983Z</time></trkpt><trkpt lat="41.0453583" lon="16.79404"><ele>105.0</ele><time>2026-03-22T08:40:25.983Z</time></trkpt><trkpt lat="41.0452933" lon="16.794005"><ele>105.0</ele><time>2026-03-22T08:40:27.984Z</time></trkpt><trkpt lat="41.0452267" lon="16.7939633"><ele>105.0</ele><time>2026-03-22T08:40:29.983Z</time></trkpt><trkpt lat="41.045155" lon="16.7939283"><ele>105.0</ele><time>2026-03-22T08:40:31.983Z</time></trkpt><trkpt lat="41.04508" lon="16.793895"><ele>105.0</ele><time>2026-03-22T08:40:33.983Z</time></trkpt><trkpt lat="41.04501" lon="16.7938667"><ele>105.0</ele><time>2026-03-22T08:40:35.984Z</time></trkpt><trkpt lat="41.044935" lon="16.7938367"><ele>105.0</ele><time>2026-03-22T08:40:37.983Z</time></trkpt><trkpt lat="41.0448583" lon="16.7938283"><ele>105.0</ele><time>2026-03-22T08:40:39.983Z</time></trkpt><trkpt lat="41.04478" lon="16.7938117"><ele>105.0</ele><time>2026-03-22T08:40:41.983Z</time></trkpt><trkpt lat="41.0447017" lon="16.7938067"><ele>105.0</ele><time>2026-03-22T08:40:43.983Z</time></trkpt><trkpt lat="41.04462" lon="16.7937983"><ele>105.0</ele><time>2026-03-22T08:40:45.983Z</time></trkpt><trkpt lat="41.0445317" lon="16.7937833"><ele>105.0</ele><time>2026-03-22T08:40:47.983Z</time></trkpt><trkpt lat="41.044445" lon="16.7937833"><ele>105.0</ele><time>2026-03-22T08:40:49.983Z</time></trkpt><trkpt lat="41.0443567" lon="16.7937917"><ele>105.0</ele><time>2026-03-22T08:40:51.983Z</time></trkpt><trkpt lat="41.0442717" lon="16.7938033"><ele>105.0</ele><time>2026-03-22T08:40:53.983Z</time></trkpt><trkpt lat="41.0441917" lon="16.7938167"><ele>105.0</ele><time>2026-03-22T08:40:55.983Z</time></trkpt><trkpt lat="41.044105" lon="16.793835"><ele>105.0</ele><time>2026-03-22T08:40:57.983Z</time></trkpt><trkpt lat="41.0440183" lon="16.79386"><ele>105.0</ele><time>2026-03-22T08:40:59.983Z</time></trkpt><trkpt lat="41.0439417" lon="16.793885"><ele>105.0</ele><time>2026-03-22T08:41:01.983Z</time></trkpt><trkpt lat="41.0438567" lon="16.793905"><ele>104.83333333333333</ele><time>2026-03-22T08:41:03.983Z</time></trkpt><trkpt lat="41.0437683" lon="16.7939283"><ele>104.66666666666666</ele><time>2026-03-22T08:41:05.983Z</time></trkpt><trkpt lat="41.0436867" lon="16.7939433"><ele>104.5</ele><time>2026-03-22T08:41:07.983Z</time></trkpt><trkpt lat="41.043605" lon="16.793965"><ele>104.33333333333333</ele><time>2026-03-22T08:41:09.983Z</time></trkpt><trkpt lat="41.0435133" lon="16.7939833"><ele>104.16666666666666</ele><time>2026-03-22T08:41:11.983Z</time></trkpt><trkpt lat="41.0434283" lon="16.79401"><ele>104.0</ele><time>2026-03-22T08:41:13.983Z</time></trkpt><trkpt lat="41.043345" lon="16.794035"><ele>103.99999999999999</ele><time>2026-03-22T08:41:15.983Z</time></trkpt><trkpt lat="41.043265" lon="16.7940617"><ele>104.0</ele><time>2026-03-22T08:41:17.983Z</time></trkpt><trkpt lat="41.04317" lon="16.7940933"><ele>104.0</ele><time>2026-03-22T08:41:19.984Z</time></trkpt><trkpt lat="41.04308" lon="16.79411"><ele>104.0</ele><time>2026-03-22T08:41:21.983Z</time></trkpt><trkpt lat="41.0429983" lon="16.7941367"><ele>103.99999999999999</ele><time>2026-03-22T08:41:23.983Z</time></trkpt><trkpt lat="41.0429167" lon="16.794165"><ele>104.0</ele><time>2026-03-22T08:41:25.983Z</time></trkpt><trkpt lat="41.0428317" lon="16.79418"><ele>103.99999999999999</ele><time>2026-03-22T08:41:27.983Z</time></trkpt><trkpt lat="41.0427517" lon="16.7942133"><ele>104.0</ele><time>2026-03-22T08:41:29.983Z</time></trkpt><trkpt lat="41.0426733" lon="16.79424"><ele>104.0</ele><time>2026-03-22T08:41:31.983Z</time></trkpt><trkpt lat="41.04258" lon="16.7942683"><ele>104.0</ele><time>2026-03-22T08:41:33.983Z</time></trkpt><trkpt lat="41.0424983" lon="16.7942883"><ele>103.99999999999999</ele><time>2026-03-22T08:41:35.983Z</time></trkpt><trkpt lat="41.0424083" lon="16.7943167"><ele>104.0</ele><time>2026-03-22T08:41:37.983Z</time></trkpt><trkpt lat="41.0423183" lon="16.7943417"><ele>104.2</ele><time>2026-03-22T08:41:39.983Z</time></trkpt><trkpt lat="41.042235" lon="16.79436"><ele>104.4</ele><time>2026-03-22T08:41:41.983Z</time></trkpt><trkpt lat="41.042145" lon="16.79438"><ele>104.6</ele><time>2026-03-22T08:41:43.983Z</time></trkpt><trkpt lat="41.0420567" lon="16.7943883"><ele>104.8</ele><time>2026-03-22T08:41:45.983Z</time></trkpt><trkpt lat="41.0419633" lon="16.7944017"><ele>105.0</ele><time>2026-03-22T08:41:47.983Z</time></trkpt><trkpt lat="41.0418733" lon="16.794425"><ele>105.0</ele><time>2026-03-22T08:41:49.983Z</time></trkpt><trkpt lat="41.04179" lon="16.7944283"><ele>105.0</ele><time>2026-03-22T08:41:51.983Z</time></trkpt><trkpt lat="41.0417" lon="16.79444"><ele>105.0</ele><time>2026-03-22T08:41:53.984Z</time></trkpt><trkpt lat="41.0416083" lon="16.7944483"><ele>105.0</ele><time>2026-03-22T08:41:55.983Z</time></trkpt><trkpt lat="41.0415133" lon="16.794445"><ele>105.0</ele><time>2026-03-22T08:41:57.983Z</time></trkpt><trkpt lat="41.0414283" lon="16.7944583"><ele>105.0</ele><time>2026-03-22T08:41:59.983Z</time></trkpt><trkpt lat="41.0413417" lon="16.7944633"><ele>105.2</ele><time>2026-03-22T08:42:01.983Z</time></trkpt><trkpt lat="41.04125" lon="16.7944733"><ele>105.4</ele><time>2026-03-22T08:42:03.983Z</time></trkpt><trkpt lat="41.0411683" lon="16.7944833"><ele>105.6</ele><time>2026-03-22T08:42:05.983Z</time></trkpt><trkpt lat="41.0410783" lon="16.79449"><ele>105.8</ele><time>2026-03-22T08:42:07.983Z</time></trkpt><trkpt lat="41.0409833" lon="16.7944983"><ele>106.0</ele><time>2026-03-22T08:42:09.983Z</time></trkpt><trkpt lat="41.0408933" lon="16.794505"><ele>106.00000000000001</ele><time>2026-03-22T08:42:11.983Z</time></trkpt><trkpt lat="41.04081" lon="16.7945217"><ele>106.0</ele><time>2026-03-22T08:42:13.983Z</time></trkpt><trkpt lat="41.0407233" lon="16.7945383"><ele>106.0</ele><time>2026-03-22T08:42:15.983Z</time></trkpt><trkpt lat="41.0406433" lon="16.7945483"><ele>106.0</ele><time>2026-03-22T08:42:17.983Z</time></trkpt><trkpt lat="41.0405567" lon="16.7945517"><ele>106.00000000000001</ele><time>2026-03-22T08:42:19.983Z</time></trkpt><trkpt lat="41.04048" lon="16.7945733"><ele>106.0</ele><time>2026-03-22T08:42:21.983Z</time></trkpt><trkpt lat="41.0403967" lon="16.7946"><ele>106.0</ele><time>2026-03-22T08:42:24.983Z</time></trkpt><trkpt lat="41.0403717" lon="16.7946867"><ele>106.0</ele><time>2026-03-22T08:42:28.983Z</time></trkpt><trkpt lat="41.040435" lon="16.79461"><ele>106.0</ele><time>2026-03-22T08:44:41.983Z</time></trkpt><trkpt lat="41.0405117" lon="16.7945767"><ele>106.0</ele><time>2026-03-22T08:44:45.983Z</time></trkpt><trkpt lat="41.0405883" lon="16.7945733"><ele>106.0</ele><time>2026-03-22T08:44:48.983Z</time></trkpt><trkpt lat="41.0406517" lon="16.7945767"><ele>106.0</ele><time>2026-03-22T08:44:50.983Z</time></trkpt><trkpt lat="41.0407233" lon="16.7945633"><ele>106.0</ele><time>2026-03-22T08:44:52.983Z</time></trkpt><trkpt lat="41.0408067" lon="16.79455"><ele>106.0</ele><time>2026-03-22T08:44:54.983Z</time></trkpt><trkpt lat="41.0408917" lon="16.7945483"><ele>106.0</ele><time>2026-03-22T08:44:56.983Z</time></trkpt><trkpt lat="41.04098" lon="16.7945317"><ele>106.0</ele><time>2026-03-22T08:44:58.983Z</time></trkpt><trkpt lat="41.0410667" lon="16.794525"><ele>106.0</ele><time>2026-03-22T08:45:00.983Z</time></trkpt><trkpt lat="41.0411583" lon="16.794515"><ele>106.0</ele><time>2026-03-22T08:45:02.983Z</time></trkpt><trkpt lat="41.0412583" lon="16.7945083"><ele>106.0</ele><time>2026-03-22T08:45:04.983Z</time></trkpt><trkpt lat="41.0413567" lon="16.7944983"><ele>106.0</ele><time>2026-03-22T08:45:06.983Z</time></trkpt><trkpt lat="41.0414567" lon="16.7944917"><ele>106.0</ele><time>2026-03-22T08:45:08.983Z</time></trkpt><trkpt lat="41.04155" lon="16.7944817"><ele>106.0</ele><time>2026-03-22T08:45:10.983Z</time></trkpt><trkpt lat="41.0416567" lon="16.7944667"><ele>106.0</ele><time>2026-03-22T08:45:12.983Z</time></trkpt><trkpt lat="41.041755" lon="16.7944583"><ele>105.8</ele><time>2026-03-22T08:45:14.983Z</time></trkpt><trkpt lat="41.0418583" lon="16.7944583"><ele>105.6</ele><time>2026-03-22T08:45:16.983Z</time></trkpt><trkpt lat="41.0419667" lon="16.79444"><ele>105.4</ele><time>2026-03-22T08:45:18.983Z</time></trkpt><trkpt lat="41.0420717" lon="16.794415"><ele>105.2</ele><time>2026-03-22T08:45:20.983Z</time></trkpt><trkpt lat="41.0421783" lon="16.7944017"><ele>105.0</ele><time>2026-03-22T08:45:22.983Z</time></trkpt><trkpt lat="41.04228" lon="16.7943733"><ele>105.0</ele><time>2026-03-22T08:45:24.983Z</time></trkpt><trkpt lat="41.0423783" lon="16.794345"><ele>105.0</ele><time>2026-03-22T08:45:26.983Z</time></trkpt><trkpt lat="41.0424867" lon="16.7943233"><ele>105.0</ele><time>2026-03-22T08:45:28.983Z</time></trkpt><trkpt lat="41.0425867" lon="16.7942933"><ele>105.0</ele><time>2026-03-22T08:45:30.983Z</time></trkpt><trkpt lat="41.042685" lon="16.7942667"><ele>105.0</ele><time>2026-03-22T08:45:32.983Z</time></trkpt><trkpt lat="41.042795" lon="16.79424"><ele>104.8</ele><time>2026-03-22T08:45:34.983Z</time></trkpt><trkpt lat="41.0429" lon="16.7942017"><ele>104.6</ele><time>2026-03-22T08:45:36.983Z</time></trkpt><trkpt lat="41.0429967" lon="16.79417"><ele>104.4</ele><time>2026-03-22T08:45:38.984Z</time></trkpt><trkpt lat="41.0430967" lon="16.794135"><ele>104.2</ele><time>2026-03-22T08:45:40.983Z</time></trkpt><trkpt lat="41.0432067" lon="16.7941083"><ele>104.0</ele><time>2026-03-22T08:45:42.983Z</time></trkpt><trkpt lat="41.043305" lon="16.7940767"><ele>104.0</ele><time>2026-03-22T08:45:44.983Z</time></trkpt><trkpt lat="41.0434033" lon="16.7940467"><ele>104.0</ele><time>2026-03-22T08:45:46.983Z</time></trkpt><trkpt lat="41.0435017" lon="16.7940183"><ele>104.0</ele><time>2026-03-22T08:45:48.983Z</time></trkpt><trkpt lat="41.0436017" lon="16.7939867"><ele>104.0</ele><time>2026-03-22T08:45:50.983Z</time></trkpt><trkpt lat="41.0437017" lon="16.79395"><ele>104.0</ele><time>2026-03-22T08:45:52.983Z</time></trkpt><trkpt lat="41.0438067" lon="16.7939317"><ele>104.0</ele><time>2026-03-22T08:45:54.983Z</time></trkpt><trkpt lat="41.0439133" lon="16.7939017"><ele>104.0</ele><time>2026-03-22T08:45:56.983Z</time></trkpt><trkpt lat="41.0440233" lon="16.793875"><ele>104.0</ele><time>2026-03-22T08:45:58.983Z</time></trkpt><trkpt lat="41.044135" lon="16.793865"><ele>104.0</ele><time>2026-03-22T08:46:00.983Z</time></trkpt><trkpt lat="41.04424" lon="16.79385"><ele>104.0</ele><time>2026-03-22T08:46:02.983Z</time></trkpt><trkpt lat="41.044345" lon="16.7938317"><ele>104.2</ele><time>2026-03-22T08:46:04.983Z</time></trkpt><trkpt lat="41.0444567" lon="16.7938117"><ele>104.4</ele><time>2026-03-22T08:46:06.983Z</time></trkpt><trkpt lat="41.0445633" lon="16.79382"><ele>104.6</ele><time>2026-03-22T08:46:08.983Z</time></trkpt><trkpt lat="41.0446733" lon="16.7938217"><ele>104.8</ele><time>2026-03-22T08:46:10.983Z</time></trkpt><trkpt lat="41.04477" lon="16.7938317"><ele>105.0</ele><time>2026-03-22T08:46:12.983Z</time></trkpt><trkpt lat="41.0448783" lon="16.7938533"><ele>105.0</ele><time>2026-03-22T08:46:14.983Z</time></trkpt><trkpt lat="41.0449833" lon="16.7938883"><ele>105.0</ele><time>2026-03-22T08:46:16.983Z</time></trkpt><trkpt lat="41.0450833" lon="16.7939283"><ele>105.0</ele><time>2026-03-22T08:46:18.983Z</time></trkpt><trkpt lat="41.045185" lon="16.793985"><ele>105.0</ele><time>2026-03-22T08:46:20.983Z</time></trkpt><trkpt lat="41.045285" lon="16.7940317"><ele>105.0</ele><time>2026-03-22T08:46:22.983Z</time></trkpt><trkpt lat="41.045385" lon="16.7940933"><ele>105.0</ele><time>2026-03-22T08:46:24.983Z</time></trkpt><trkpt lat="41.045445" lon="16.7941233"><ele>105.0</ele><time>2026-03-22T08:46:25.983Z</time></trkpt><trkpt lat="41.04555" lon="16.7941767"><ele>105.0</ele><time>2026-03-22T08:46:27.983Z</time></trkpt><trkpt lat="41.0456617" lon="16.794235"><ele>105.0</ele><time>2026-03-22T08:46:29.983Z</time></trkpt><trkpt lat="41.0457233" lon="16.7942683"><ele>105.0</ele><time>2026-03-22T08:46:30.983Z</time></trkpt><trkpt lat="41.04584" lon="16.7943267"><ele>104.75</ele><time>2026-03-22T08:46:32.983Z</time></trkpt><trkpt lat="41.0459483" lon="16.7943917"><ele>104.5</ele><time>2026-03-22T08:46:34.983Z</time></trkpt><trkpt lat="41.0460583" lon="16.794435"><ele>104.25</ele><time>2026-03-22T08:46:36.983Z</time></trkpt><trkpt lat="41.0461667" lon="16.794475"><ele>104.0</ele><time>2026-03-22T08:46:38.984Z</time></trkpt><trkpt lat="41.0462767" lon="16.794505"><ele>104.0</ele><time>2026-03-22T08:46:40.983Z</time></trkpt><trkpt lat="41.04638" lon="16.7945233"><ele>104.0</ele><time>2026-03-22T08:46:42.983Z</time></trkpt><trkpt lat="41.0464967" lon="16.7945417"><ele>104.0</ele><time>2026-03-22T08:46:44.983Z</time></trkpt><trkpt lat="41.04661" lon="16.794545"><ele>104.0</ele><time>2026-03-22T08:46:46.983Z</time></trkpt><trkpt lat="41.0467233" lon="16.794555"><ele>104.0</ele><time>2026-03-22T08:46:48.983Z</time></trkpt><trkpt lat="41.0468433" lon="16.7945433"><ele>103.25</ele><time>2026-03-22T08:46:50.983Z</time></trkpt><trkpt lat="41.0469633" lon="16.79453"><ele>102.5</ele><time>2026-03-22T08:46:52.983Z</time></trkpt><trkpt lat="41.0470783" lon="16.7945133"><ele>101.75</ele><time>2026-03-22T08:46:54.984Z</time></trkpt><trkpt lat="41.0471933" lon="16.7944983"><ele>101.0</ele><time>2026-03-22T08:46:56.984Z</time></trkpt><trkpt lat="41.047305" lon="16.79448"><ele>101.0</ele><time>2026-03-22T08:46:58.983Z</time></trkpt><trkpt lat="41.047415" lon="16.794475"><ele>101.0</ele><time>2026-03-22T08:47:00.983Z</time></trkpt><trkpt lat="41.047525" lon="16.7944567"><ele>101.0</ele><time>2026-03-22T08:47:02.983Z</time></trkpt><trkpt lat="41.0476283" lon="16.7944517"><ele>101.0</ele><time>2026-03-22T08:47:04.983Z</time></trkpt><trkpt lat="41.0477367" lon="16.7944433"><ele>101.0</ele><time>2026-03-22T08:47:06.983Z</time></trkpt><trkpt lat="41.0478467" lon="16.7944383"><ele>101.0</ele><time>2026-03-22T08:47:08.983Z</time></trkpt><trkpt lat="41.0479567" lon="16.7944433"><ele>101.0</ele><time>2026-03-22T08:47:10.983Z</time></trkpt><trkpt lat="41.0480633" lon="16.7944567"><ele>101.0</ele><time>2026-03-22T08:47:12.983Z</time></trkpt><trkpt lat="41.0481783" lon="16.7944733"><ele>101.0</ele><time>2026-03-22T08:47:14.983Z</time></trkpt><trkpt lat="41.0482917" lon="16.794505"><ele>101.0</ele><time>2026-03-22T08:47:16.983Z</time></trkpt><trkpt lat="41.0484033" lon="16.794535"><ele>100.75</ele><time>2026-03-22T08:47:18.983Z</time></trkpt><trkpt lat="41.04852" lon="16.7945633"><ele>100.5</ele><time>2026-03-22T08:47:20.983Z</time></trkpt><trkpt lat="41.04863" lon="16.7945933"><ele>100.25</ele><time>2026-03-22T08:47:22.983Z</time></trkpt><trkpt lat="41.04874" lon="16.79461"><ele>100.0</ele><time>2026-03-22T08:47:24.983Z</time></trkpt><trkpt lat="41.04886" lon="16.7946433"><ele>100.0</ele><time>2026-03-22T08:47:26.983Z</time></trkpt><trkpt lat="41.048965" lon="16.7946733"><ele>100.0</ele><time>2026-03-22T08:47:28.983Z</time></trkpt><trkpt lat="41.0490783" lon="16.7946933"><ele>100.0</ele><time>2026-03-22T08:47:30.983Z</time></trkpt><trkpt lat="41.0491883" lon="16.7947067"><ele>100.0</ele><time>2026-03-22T08:47:32.983Z</time></trkpt><trkpt lat="41.0493033" lon="16.7947317"><ele>100.0</ele><time>2026-03-22T08:47:34.983Z</time></trkpt><trkpt lat="41.04942" lon="16.7947467"><ele>99.25</ele><time>2026-03-22T08:47:36.983Z</time></trkpt><trkpt lat="41.04954" lon="16.794755"><ele>98.5</ele><time>2026-03-22T08:47:38.983Z</time></trkpt><trkpt lat="41.0496467" lon="16.7947533"><ele>97.75</ele><time>2026-03-22T08:47:40.983Z</time></trkpt><trkpt lat="41.0497617" lon="16.7947483"><ele>97.0</ele><time>2026-03-22T08:47:42.983Z</time></trkpt><trkpt lat="41.0498767" lon="16.7947483"><ele>96.8</ele><time>2026-03-22T08:47:44.983Z</time></trkpt><trkpt lat="41.0499867" lon="16.7947483"><ele>96.6</ele><time>2026-03-22T08:47:46.983Z</time></trkpt><trkpt lat="41.0500933" lon="16.794745"><ele>96.39999999999999</ele><time>2026-03-22T08:47:48.983Z</time></trkpt><trkpt lat="41.0502067" lon="16.7947283"><ele>96.19999999999999</ele><time>2026-03-22T08:47:50.983Z</time></trkpt><trkpt lat="41.0503233" lon="16.7947067"><ele>96.0</ele><time>2026-03-22T08:47:52.983Z</time></trkpt><trkpt lat="41.0504367" lon="16.794705"><ele>96.0</ele><time>2026-03-22T08:47:54.983Z</time></trkpt><trkpt lat="41.0505433" lon="16.7946967"><ele>96.0</ele><time>2026-03-22T08:47:56.983Z</time></trkpt><trkpt lat="41.0506617" lon="16.794675"><ele>96.0</ele><time>2026-03-22T08:47:58.983Z</time></trkpt><trkpt lat="41.0507733" lon="16.7946667"><ele>96.0</ele><time>2026-03-22T08:48:00.983Z</time></trkpt><trkpt lat="41.0508867" lon="16.79465"><ele>96.0</ele><time>2026-03-22T08:48:02.983Z</time></trkpt><trkpt lat="41.0510033" lon="16.794635"><ele>96.0</ele><time>2026-03-22T08:48:04.983Z</time></trkpt><trkpt lat="41.0511133" lon="16.7946167"><ele>96.0</ele><time>2026-03-22T08:48:06.983Z</time></trkpt><trkpt lat="41.0512217" lon="16.7945983"><ele>96.0</ele><time>2026-03-22T08:48:08.983Z</time></trkpt><trkpt lat="41.0513317" lon="16.7945783"><ele>96.0</ele><time>2026-03-22T08:48:10.983Z</time></trkpt><trkpt lat="41.0514517" lon="16.7945617"><ele>96.0</ele><time>2026-03-22T08:48:12.983Z</time></trkpt><trkpt lat="41.0515667" lon="16.794535"><ele>96.0</ele><time>2026-03-22T08:48:14.983Z</time></trkpt><trkpt lat="41.0516783" lon="16.794505"><ele>96.0</ele><time>2026-03-22T08:48:16.983Z</time></trkpt><trkpt lat="41.0517933" lon="16.794475"><ele>96.0</ele><time>2026-03-22T08:48:18.983Z</time></trkpt><trkpt lat="41.051915" lon="16.7944567"><ele>96.0</ele><time>2026-03-22T08:48:20.983Z</time></trkpt><trkpt lat="41.05203" lon="16.7944283"><ele>96.0</ele><time>2026-03-22T08:48:22.983Z</time></trkpt><trkpt lat="41.0521517" lon="16.7943933"><ele>96.0</ele><time>2026-03-22T08:48:24.983Z</time></trkpt><trkpt lat="41.0522617" lon="16.7943733"><ele>96.0</ele><time>2026-03-22T08:48:26.983Z</time></trkpt><trkpt lat="41.0523667" lon="16.7943467"><ele>95.8</ele><time>2026-03-22T08:48:28.983Z</time></trkpt><trkpt lat="41.052465" lon="16.794325"><ele>95.6</ele><time>2026-03-22T08:48:30.983Z</time></trkpt><trkpt lat="41.052555" lon="16.7943067"><ele>95.4</ele><time>2026-03-22T08:48:32.983Z</time></trkpt><trkpt lat="41.052655" lon="16.79429"><ele>95.2</ele><time>2026-03-22T08:48:34.983Z</time></trkpt><trkpt lat="41.05274" lon="16.7942717"><ele>95.0</ele><time>2026-03-22T08:48:36.983Z</time></trkpt><trkpt lat="41.052825" lon="16.79425"><ele>95.0</ele><time>2026-03-22T08:48:38.983Z</time></trkpt><trkpt lat="41.0529233" lon="16.7942233"><ele>95.0</ele><time>2026-03-22T08:48:40.983Z</time></trkpt><trkpt lat="41.0530233" lon="16.7942133"><ele>95.0</ele><time>2026-03-22T08:48:42.984Z</time></trkpt><trkpt lat="41.05312" lon="16.7941833"><ele>95.0</ele><time>2026-03-22T08:48:44.983Z</time></trkpt><trkpt lat="41.0532317" lon="16.79415"><ele>95.0</ele><time>2026-03-22T08:48:46.984Z</time></trkpt><trkpt lat="41.053335" lon="16.7941283"><ele>95.0</ele><time>2026-03-22T08:48:48.983Z</time></trkpt><trkpt lat="41.0534467" lon="16.7941067"><ele>95.0</ele><time>2026-03-22T08:48:50.983Z</time></trkpt><trkpt lat="41.05356" lon="16.7940767"><ele>95.0</ele><time>2026-03-22T08:48:52.983Z</time></trkpt><trkpt lat="41.05367" lon="16.7940517"><ele>95.0</ele><time>2026-03-22T08:48:54.983Z</time></trkpt><trkpt lat="41.0537933" lon="16.79403"><ele>95.0</ele><time>2026-03-22T08:48:56.983Z</time></trkpt><trkpt lat="41.0539117" lon="16.794"><ele>95.0</ele><time>2026-03-22T08:48:58.983Z</time></trkpt><trkpt lat="41.0540333" lon="16.7939833"><ele>95.0</ele><time>2026-03-22T08:49:00.984Z</time></trkpt><trkpt lat="41.0540967" lon="16.7939633"><ele>95.0</ele><time>2026-03-22T08:49:01.984Z</time></trkpt><trkpt lat="41.054165" lon="16.7939483"><ele>95.0</ele><time>2026-03-22T08:49:02.984Z</time></trkpt><trkpt lat="41.05423" lon="16.7939383"><ele>95.0</ele><time>2026-03-22T08:49:03.984Z</time></trkpt><trkpt lat="41.0542967" lon="16.7939267"><ele>94.4</ele><time>2026-03-22T08:49:04.984Z</time></trkpt><trkpt lat="41.05436" lon="16.793905"><ele>93.8</ele><time>2026-03-22T08:49:05.984Z</time></trkpt><trkpt lat="41.054475" lon="16.7938533"><ele>93.19999999999999</ele><time>2026-03-22T08:49:07.984Z</time></trkpt><trkpt lat="41.0545333" lon="16.7938167"><ele>92.6</ele><time>2026-03-22T08:49:08.984Z</time></trkpt><trkpt lat="41.0546417" lon="16.7937583"><ele>92.0</ele><time>2026-03-22T08:49:10.984Z</time></trkpt><trkpt lat="41.05475" lon="16.793695"><ele>92.0</ele><time>2026-03-22T08:49:12.984Z</time></trkpt><trkpt lat="41.0548633" lon="16.7936483"><ele>92.0</ele><time>2026-03-22T08:49:14.984Z</time></trkpt><trkpt lat="41.05497" lon="16.7935983"><ele>92.0</ele><time>2026-03-22T08:49:16.984Z</time></trkpt><trkpt lat="41.0550683" lon="16.7935233"><ele>92.0</ele><time>2026-03-22T08:49:18.984Z</time></trkpt><trkpt lat="41.0551233" lon="16.79348"><ele>92.0</ele><time>2026-03-22T08:49:19.984Z</time></trkpt><trkpt lat="41.0552183" lon="16.793385"><ele>91.39999999999999</ele><time>2026-03-22T08:49:21.984Z</time></trkpt><trkpt lat="41.0552983" lon="16.7932917"><ele>90.8</ele><time>2026-03-22T08:49:23.984Z</time></trkpt><trkpt lat="41.05538" lon="16.79319"><ele>90.2</ele><time>2026-03-22T08:49:25.984Z</time></trkpt><trkpt lat="41.0554633" lon="16.793085"><ele>89.6</ele><time>2026-03-22T08:49:27.984Z</time></trkpt><trkpt lat="41.0555333" lon="16.792975"><ele>89.0</ele><time>2026-03-22T08:49:29.984Z</time></trkpt><trkpt lat="41.0556017" lon="16.7928633"><ele>89.0</ele><time>2026-03-22T08:49:31.984Z</time></trkpt><trkpt lat="41.0556733" lon="16.79276"><ele>89.0</ele><time>2026-03-22T08:49:33.984Z</time></trkpt><trkpt lat="41.0557483" lon="16.7926583"><ele>89.0</ele><time>2026-03-22T08:49:35.984Z</time></trkpt><trkpt lat="41.0558167" lon="16.7925533"><ele>89.0</ele><time>2026-03-22T08:49:37.984Z</time></trkpt><trkpt lat="41.055885" lon="16.792455"><ele>89.0</ele><time>2026-03-22T08:49:39.984Z</time></trkpt><trkpt lat="41.0559483" lon="16.79236"><ele>89.80000000000001</ele><time>2026-03-22T08:49:41.984Z</time></trkpt><trkpt lat="41.0560117" lon="16.7922683"><ele>90.60000000000001</ele><time>2026-03-22T08:49:43.984Z</time></trkpt><trkpt lat="41.05607" lon="16.7921583"><ele>91.4</ele><time>2026-03-22T08:49:45.984Z</time></trkpt><trkpt lat="41.0561417" lon="16.7920633"><ele>92.2</ele><time>2026-03-22T08:49:47.984Z</time></trkpt><trkpt lat="41.0562033" lon="16.7919733"><ele>93.0</ele><time>2026-03-22T08:49:49.984Z</time></trkpt><trkpt lat="41.056265" lon="16.7918883"><ele>93.16666666666667</ele><time>2026-03-22T08:49:51.984Z</time></trkpt><trkpt lat="41.0563267" lon="16.79182"><ele>93.33333333333333</ele><time>2026-03-22T08:49:53.984Z</time></trkpt><trkpt lat="41.0563883" lon="16.791755"><ele>93.5</ele><time>2026-03-22T08:49:55.984Z</time></trkpt><trkpt lat="41.05646" lon="16.7916833"><ele>93.66666666666666</ele><time>2026-03-22T08:49:57.984Z</time></trkpt><trkpt lat="41.0565367" lon="16.7916133"><ele>93.83333333333333</ele><time>2026-03-22T08:49:59.984Z</time></trkpt><trkpt lat="41.0566117" lon="16.7915483"><ele>94.0</ele><time>2026-03-22T08:50:01.984Z</time></trkpt><trkpt lat="41.0566933" lon="16.791475"><ele>93.6</ele><time>2026-03-22T08:50:03.984Z</time></trkpt><trkpt lat="41.05678" lon="16.7914133"><ele>93.2</ele><time>2026-03-22T08:50:05.984Z</time></trkpt><trkpt lat="41.056865" lon="16.79136"><ele>92.8</ele><time>2026-03-22T08:50:07.984Z</time></trkpt><trkpt lat="41.0569583" lon="16.7913167"><ele>92.39999999999999</ele><time>2026-03-22T08:50:09.984Z</time></trkpt><trkpt lat="41.057045" lon="16.791255"><ele>92.0</ele><time>2026-03-22T08:50:11.984Z</time></trkpt><trkpt lat="41.05713" lon="16.7911967"><ele>92.0</ele><time>2026-03-22T08:50:13.984Z</time></trkpt><trkpt lat="41.05722" lon="16.7911467"><ele>92.0</ele><time>2026-03-22T08:50:15.984Z</time></trkpt><trkpt lat="41.0573183" lon="16.7910917"><ele>92.0</ele><time>2026-03-22T08:50:17.984Z</time></trkpt><trkpt lat="41.0574117" lon="16.7910367"><ele>92.0</ele><time>2026-03-22T08:50:19.984Z</time></trkpt><trkpt lat="41.057505" lon="16.7909883"><ele>92.0</ele><time>2026-03-22T08:50:21.984Z</time></trkpt><trkpt lat="41.0575933" lon="16.7909217"><ele>92.0</ele><time>2026-03-22T08:50:23.984Z</time></trkpt><trkpt lat="41.0576917" lon="16.79086"><ele>92.0</ele><time>2026-03-22T08:50:25.984Z</time></trkpt><trkpt lat="41.0577883" lon="16.790805"><ele>92.0</ele><time>2026-03-22T08:50:27.984Z</time></trkpt><trkpt lat="41.0578817" lon="16.7907567"><ele>92.0</ele><time>2026-03-22T08:50:29.984Z</time></trkpt><trkpt lat="41.057985" lon="16.79069"><ele>92.0</ele><time>2026-03-22T08:50:31.984Z</time></trkpt><trkpt lat="41.0580867" lon="16.7906417"><ele>92.0</ele><time>2026-03-22T08:50:33.984Z</time></trkpt><trkpt lat="41.0581883" lon="16.790575"><ele>92.0</ele><time>2026-03-22T08:50:35.984Z</time></trkpt><trkpt lat="41.058285" lon="16.7905167"><ele>92.0</ele><time>2026-03-22T08:50:37.984Z</time></trkpt><trkpt lat="41.0583833" lon="16.7904533"><ele>92.0</ele><time>2026-03-22T08:50:39.984Z</time></trkpt><trkpt lat="41.0584867" lon="16.790395"><ele>92.0</ele><time>2026-03-22T08:50:41.984Z</time></trkpt><trkpt lat="41.05859" lon="16.7903533"><ele>91.75</ele><time>2026-03-22T08:50:43.984Z</time></trkpt><trkpt lat="41.0587" lon="16.7902933"><ele>91.5</ele><time>2026-03-22T08:50:45.984Z</time></trkpt><trkpt lat="41.05881" lon="16.7902317"><ele>91.25</ele><time>2026-03-22T08:50:47.984Z</time></trkpt><trkpt lat="41.0589233" lon="16.7901767"><ele>91.0</ele><time>2026-03-22T08:50:49.984Z</time></trkpt><trkpt lat="41.0590267" lon="16.7901267"><ele>91.0</ele><time>2026-03-22T08:50:51.984Z</time></trkpt><trkpt lat="41.0591367" lon="16.790085"><ele>91.0</ele><time>2026-03-22T08:50:53.984Z</time></trkpt><trkpt lat="41.05925" lon="16.7900567"><ele>91.0</ele><time>2026-03-22T08:50:55.984Z</time></trkpt><trkpt lat="41.0593617" lon="16.790025"><ele>91.0</ele><time>2026-03-22T08:50:57.984Z</time></trkpt><trkpt lat="41.0594683" lon="16.7899983"><ele>91.0</ele><time>2026-03-22T08:50:59.984Z</time></trkpt><trkpt lat="41.0595783" lon="16.789965"><ele>91.0</ele><time>2026-03-22T08:51:01.984Z</time></trkpt><trkpt lat="41.0597017" lon="16.78995"><ele>91.0</ele><time>2026-03-22T08:51:03.984Z</time></trkpt><trkpt lat="41.0598233" lon="16.7899383"><ele>91.0</ele><time>2026-03-22T08:51:05.984Z</time></trkpt><trkpt lat="41.05994" lon="16.7899183"><ele>90.8</ele><time>2026-03-22T08:51:07.984Z</time></trkpt><trkpt lat="41.0600583" lon="16.7898983"><ele>90.6</ele><time>2026-03-22T08:51:09.985Z</time></trkpt><trkpt lat="41.0601717" lon="16.7898917"><ele>90.4</ele><time>2026-03-22T08:51:11.984Z</time></trkpt><trkpt lat="41.06027" lon="16.7898933"><ele>90.2</ele><time>2026-03-22T08:51:13.985Z</time></trkpt><trkpt lat="41.0603717" lon="16.7898833"><ele>90.0</ele><time>2026-03-22T08:51:15.984Z</time></trkpt><trkpt lat="41.0604733" lon="16.7898967"><ele>90.0</ele><time>2026-03-22T08:51:17.984Z</time></trkpt><trkpt lat="41.0605617" lon="16.7899033"><ele>90.0</ele><time>2026-03-22T08:51:19.984Z</time></trkpt><trkpt lat="41.0606533" lon="16.7898933"><ele>90.0</ele><time>2026-03-22T08:51:21.984Z</time></trkpt><trkpt lat="41.0607567" lon="16.789885"><ele>90.0</ele><time>2026-03-22T08:51:23.985Z</time></trkpt><trkpt lat="41.060845" lon="16.7898817"><ele>90.0</ele><time>2026-03-22T08:51:25.984Z</time></trkpt><trkpt lat="41.0609583" lon="16.7898917"><ele>90.0</ele><time>2026-03-22T08:51:27.984Z</time></trkpt><trkpt lat="41.061065" lon="16.789895"><ele>90.0</ele><time>2026-03-22T08:51:29.984Z</time></trkpt><trkpt lat="41.06117" lon="16.7899633"><ele>90.0</ele><time>2026-03-22T08:51:31.984Z</time></trkpt><trkpt lat="41.0612283" lon="16.7899983"><ele>90.0</ele><time>2026-03-22T08:51:32.984Z</time></trkpt><trkpt lat="41.061345" lon="16.7900417"><ele>90.0</ele><time>2026-03-22T08:51:34.984Z</time></trkpt><trkpt lat="41.0614583" lon="16.7900733"><ele>90.0</ele><time>2026-03-22T08:51:36.984Z</time></trkpt><trkpt lat="41.0615633" lon="16.790135"><ele>90.0</ele><time>2026-03-22T08:51:38.984Z</time></trkpt><trkpt lat="41.0616633" lon="16.790215"><ele>90.0</ele><time>2026-03-22T08:51:40.984Z</time></trkpt><trkpt lat="41.0617733" lon="16.7902633"><ele>90.0</ele><time>2026-03-22T08:51:42.984Z</time></trkpt><trkpt lat="41.0618633" lon="16.7902533"><ele>90.0</ele><time>2026-03-22T08:51:44.984Z</time></trkpt><trkpt lat="41.061975" lon="16.7902483"><ele>89.75</ele><time>2026-03-22T08:51:46.984Z</time></trkpt><trkpt lat="41.0620883" lon="16.7902567"><ele>89.5</ele><time>2026-03-22T08:51:48.984Z</time></trkpt><trkpt lat="41.0622067" lon="16.79028"><ele>89.25</ele><time>2026-03-22T08:51:50.984Z</time></trkpt><trkpt lat="41.0623233" lon="16.790295"><ele>89.0</ele><time>2026-03-22T08:51:52.984Z</time></trkpt><trkpt lat="41.0624367" lon="16.7903183"><ele>88.5</ele><time>2026-03-22T08:51:54.984Z</time></trkpt><trkpt lat="41.06256" lon="16.790335"><ele>88.0</ele><time>2026-03-22T08:51:56.984Z</time></trkpt><trkpt lat="41.062675" lon="16.7903583"><ele>87.5</ele><time>2026-03-22T08:51:58.984Z</time></trkpt><trkpt lat="41.0627917" lon="16.79038"><ele>87.0</ele><time>2026-03-22T08:52:00.984Z</time></trkpt><trkpt lat="41.0628983" lon="16.7904317"><ele>87.0</ele><time>2026-03-22T08:52:02.984Z</time></trkpt><trkpt lat="41.0630083" lon="16.79046"><ele>87.0</ele><time>2026-03-22T08:52:04.984Z</time></trkpt><trkpt lat="41.063125" lon="16.79049"><ele>87.0</ele><time>2026-03-22T08:52:06.984Z</time></trkpt><trkpt lat="41.0632433" lon="16.79053"><ele>87.0</ele><time>2026-03-22T08:52:08.984Z</time></trkpt><trkpt lat="41.0633567" lon="16.79055"><ele>86.75</ele><time>2026-03-22T08:52:10.984Z</time></trkpt><trkpt lat="41.0634717" lon="16.7905783"><ele>86.5</ele><time>2026-03-22T08:52:12.984Z</time></trkpt><trkpt lat="41.063585" lon="16.7906033"><ele>86.25</ele><time>2026-03-22T08:52:14.984Z</time></trkpt><trkpt lat="41.063695" lon="16.79063"><ele>86.0</ele><time>2026-03-22T08:52:16.984Z</time></trkpt><trkpt lat="41.0638067" lon="16.7906533"><ele>86.0</ele><time>2026-03-22T08:52:18.984Z</time></trkpt><trkpt lat="41.06387" lon="16.7906633"><ele>86.0</ele><time>2026-03-22T08:52:19.984Z</time></trkpt><trkpt lat="41.0639783" lon="16.7906917"><ele>86.0</ele><time>2026-03-22T08:52:21.984Z</time></trkpt><trkpt lat="41.06409" lon="16.79069"><ele>86.0</ele><time>2026-03-22T08:52:23.984Z</time></trkpt><trkpt lat="41.0642" lon="16.7906817"><ele>86.0</ele><time>2026-03-22T08:52:25.984Z</time></trkpt><trkpt lat="41.06431" lon="16.7906433"><ele>86.25</ele><time>2026-03-22T08:52:27.984Z</time></trkpt><trkpt lat="41.0644117" lon="16.7905833"><ele>86.5</ele><time>2026-03-22T08:52:29.984Z</time></trkpt><trkpt lat="41.0645133" lon="16.7905183"><ele>86.75</ele><time>2026-03-22T08:52:31.984Z</time></trkpt><trkpt lat="41.064615" lon="16.790435"><ele>87.0</ele><time>2026-03-22T08:52:33.984Z</time></trkpt><trkpt lat="41.0647017" lon="16.7903367"><ele>87.0</ele><time>2026-03-22T08:52:35.984Z</time></trkpt><trkpt lat="41.0647867" lon="16.790235"><ele>87.0</ele><time>2026-03-22T08:52:37.984Z</time></trkpt><trkpt lat="41.0648717" lon="16.790135"><ele>87.0</ele><time>2026-03-22T08:52:39.984Z</time></trkpt><trkpt lat="41.0649533" lon="16.790035"><ele>87.0</ele><time>2026-03-22T08:52:41.984Z</time></trkpt><trkpt lat="41.0650417" lon="16.78993"><ele>86.5</ele><time>2026-03-22T08:52:43.984Z</time></trkpt><trkpt lat="41.0651217" lon="16.7898267"><ele>86.0</ele><time>2026-03-22T08:52:45.984Z</time></trkpt><trkpt lat="41.0652067" lon="16.78973"><ele>85.5</ele><time>2026-03-22T08:52:47.984Z</time></trkpt><trkpt lat="41.0652917" lon="16.7896317"><ele>85.0</ele><time>2026-03-22T08:52:49.984Z</time></trkpt><trkpt lat="41.065375" lon="16.789505"><ele>85.0</ele><time>2026-03-22T08:52:51.984Z</time></trkpt><trkpt lat="41.0654317" lon="16.78945"><ele>85.0</ele><time>2026-03-22T08:52:52.984Z</time></trkpt><trkpt lat="41.0654967" lon="16.7893833"><ele>85.0</ele><time>2026-03-22T08:52:53.984Z</time></trkpt><trkpt lat="41.065555" lon="16.78931"><ele>85.0</ele><time>2026-03-22T08:52:54.984Z</time></trkpt><trkpt lat="41.065605" lon="16.7892383"><ele>85.0</ele><time>2026-03-22T08:52:55.984Z</time></trkpt><trkpt lat="41.065665" lon="16.789165"><ele>85.0</ele><time>2026-03-22T08:52:56.984Z</time></trkpt><trkpt lat="41.0657267" lon="16.7890883"><ele>84.5</ele><time>2026-03-22T08:52:57.984Z</time></trkpt><trkpt lat="41.0657883" lon="16.7890083"><ele>84.0</ele><time>2026-03-22T08:52:58.984Z</time></trkpt><trkpt lat="41.0658517" lon="16.7889317"><ele>83.5</ele><time>2026-03-22T08:52:59.984Z</time></trkpt><trkpt lat="41.0659117" lon="16.7888467"><ele>83.0</ele><time>2026-03-22T08:53:00.984Z</time></trkpt><trkpt lat="41.06597" lon="16.7887617"><ele>82.5</ele><time>2026-03-22T08:53:01.984Z</time></trkpt><trkpt lat="41.0660283" lon="16.7886783"><ele>82.0</ele><time>2026-03-22T08:53:02.984Z</time></trkpt><trkpt lat="41.066085" lon="16.78859"><ele>82.0</ele><time>2026-03-22T08:53:03.984Z</time></trkpt><trkpt lat="41.066145" lon="16.7885117"><ele>82.0</ele><time>2026-03-22T08:53:04.984Z</time></trkpt><trkpt lat="41.0662083" lon="16.7884183"><ele>82.0</ele><time>2026-03-22T08:53:05.984Z</time></trkpt><trkpt lat="41.06627" lon="16.7883283"><ele>82.0</ele><time>2026-03-22T08:53:06.984Z</time></trkpt><trkpt lat="41.0663467" lon="16.7882483"><ele>82.0</ele><time>2026-03-22T08:53:07.984Z</time></trkpt><trkpt lat="41.0664233" lon="16.7881733"><ele>81.66666666666666</ele><time>2026-03-22T08:53:08.984Z</time></trkpt><trkpt lat="41.06651" lon="16.7881117"><ele>81.33333333333333</ele><time>2026-03-22T08:53:09.984Z</time></trkpt><trkpt lat="41.0665967" lon="16.7880717"><ele>81.0</ele><time>2026-03-22T08:53:10.984Z</time></trkpt><trkpt lat="41.0666783" lon="16.788055"><ele>80.66666666666667</ele><time>2026-03-22T08:53:11.984Z</time></trkpt><trkpt lat="41.0667567" lon="16.7880567"><ele>80.33333333333334</ele><time>2026-03-22T08:53:12.984Z</time></trkpt><trkpt lat="41.0668433" lon="16.78807"><ele>80.0</ele><time>2026-03-22T08:53:13.984Z</time></trkpt><trkpt lat="41.0669267" lon="16.7881067"><ele>80.0</ele><time>2026-03-22T08:53:14.984Z</time></trkpt><trkpt lat="41.0670017" lon="16.78815"><ele>80.0</ele><time>2026-03-22T08:53:15.984Z</time></trkpt><trkpt lat="41.067075" lon="16.7882067"><ele>80.0</ele><time>2026-03-22T08:53:16.984Z</time></trkpt><trkpt lat="41.0671417" lon="16.7882683"><ele>80.0</ele><time>2026-03-22T08:53:17.984Z</time></trkpt><trkpt lat="41.0672067" lon="16.7883417"><ele>80.0</ele><time>2026-03-22T08:53:18.985Z</time></trkpt><trkpt lat="41.06726" lon="16.788425"><ele>80.0</ele><time>2026-03-22T08:53:19.984Z</time></trkpt><trkpt lat="41.0673083" lon="16.788505"><ele>80.14285714285714</ele><time>2026-03-22T08:53:20.984Z</time></trkpt><trkpt lat="41.06735" lon="16.7885917"><ele>80.28571428571429</ele><time>2026-03-22T08:53:21.984Z</time></trkpt><trkpt lat="41.06738" lon="16.7886833"><ele>80.42857142857143</ele><time>2026-03-22T08:53:22.984Z</time></trkpt><trkpt lat="41.0674167" lon="16.7887683"><ele>80.57142857142857</ele><time>2026-03-22T08:53:23.984Z</time></trkpt><trkpt lat="41.0674417" lon="16.7888583"><ele>80.71428571428571</ele><time>2026-03-22T08:53:24.984Z</time></trkpt><trkpt lat="41.0674767" lon="16.78894"><ele>80.85714285714286</ele><time>2026-03-22T08:53:25.984Z</time></trkpt><trkpt lat="41.067525" lon="16.78902"><ele>81.0</ele><time>2026-03-22T08:53:26.984Z</time></trkpt><trkpt lat="41.0675717" lon="16.789095"><ele>80.2</ele><time>2026-03-22T08:53:27.984Z</time></trkpt><trkpt lat="41.06763" lon="16.789165"><ele>79.39999999999999</ele><time>2026-03-22T08:53:28.984Z</time></trkpt><trkpt lat="41.06771" lon="16.78921"><ele>78.6</ele><time>2026-03-22T08:53:29.984Z</time></trkpt><trkpt lat="41.06779" lon="16.78925"><ele>77.8</ele><time>2026-03-22T08:53:30.984Z</time></trkpt><trkpt lat="41.0678883" lon="16.7892767"><ele>77.0</ele><time>2026-03-22T08:53:31.984Z</time></trkpt><trkpt lat="41.0679917" lon="16.78929"><ele>77.0</ele><time>2026-03-22T08:53:32.985Z</time></trkpt><trkpt lat="41.06809" lon="16.7892967"><ele>77.0</ele><time>2026-03-22T08:53:33.985Z</time></trkpt><trkpt lat="41.0681817" lon="16.789315"><ele>77.0</ele><time>2026-03-22T08:53:34.984Z</time></trkpt><trkpt lat="41.0682733" lon="16.789335"><ele>77.0</ele><time>2026-03-22T08:53:35.984Z</time></trkpt><trkpt lat="41.0683717" lon="16.7893483"><ele>77.0</ele><time>2026-03-22T08:53:36.984Z</time></trkpt><trkpt lat="41.0684633" lon="16.7893683"><ele>76.5</ele><time>2026-03-22T08:53:37.984Z</time></trkpt><trkpt lat="41.0685533" lon="16.78938"><ele>76.0</ele><time>2026-03-22T08:53:38.984Z</time></trkpt><trkpt lat="41.0686367" lon="16.7893917"><ele>75.5</ele><time>2026-03-22T08:53:39.984Z</time></trkpt><trkpt lat="41.0687267" lon="16.7893983"><ele>75.0</ele><time>2026-03-22T08:53:40.984Z</time></trkpt><trkpt lat="41.0688067" lon="16.7894033"><ele>74.5</ele><time>2026-03-22T08:53:41.984Z</time></trkpt><trkpt lat="41.0688817" lon="16.789395"><ele>74.0</ele><time>2026-03-22T08:53:42.984Z</time></trkpt><trkpt lat="41.0689417" lon="16.7893617"><ele>73.8</ele><time>2026-03-22T08:53:43.984Z</time></trkpt><trkpt lat="41.0690217" lon="16.7892617"><ele>73.60000000000001</ele><time>2026-03-22T08:53:45.984Z</time></trkpt><trkpt lat="41.069075" lon="16.7891583"><ele>73.4</ele><time>2026-03-22T08:53:47.984Z</time></trkpt><trkpt lat="41.0691083" lon="16.7890433"><ele>73.2</ele><time>2026-03-22T08:53:49.984Z</time></trkpt><trkpt lat="41.0691533" lon="16.788935"><ele>73.0</ele><time>2026-03-22T08:53:51.984Z</time></trkpt><trkpt lat="41.0691967" lon="16.7888283"><ele>73.66666666666666</ele><time>2026-03-22T08:53:53.984Z</time></trkpt><trkpt lat="41.06923" lon="16.7887117"><ele>74.33333333333333</ele><time>2026-03-22T08:53:55.984Z</time></trkpt><trkpt lat="41.06927" lon="16.7885967"><ele>75.0</ele><time>2026-03-22T08:53:57.984Z</time></trkpt><trkpt lat="41.0693183" lon="16.7884867"><ele>75.66666666666667</ele><time>2026-03-22T08:53:59.984Z</time></trkpt><trkpt lat="41.0693733" lon="16.7883967"><ele>76.33333333333334</ele><time>2026-03-22T08:54:01.984Z</time></trkpt><trkpt lat="41.06943" lon="16.7883317"><ele>77.0</ele><time>2026-03-22T08:54:03.985Z</time></trkpt><trkpt lat="41.06949" lon="16.7882717"><ele>77.0</ele><time>2026-03-22T08:54:05.984Z</time></trkpt><trkpt lat="41.06956" lon="16.7882183"><ele>77.0</ele><time>2026-03-22T08:54:08.984Z</time></trkpt><trkpt lat="41.06963" lon="16.788165"><ele>77.0</ele><time>2026-03-22T08:54:11.984Z</time></trkpt><trkpt lat="41.0697083" lon="16.788115"><ele>77.0</ele><time>2026-03-22T08:54:14.984Z</time></trkpt><trkpt lat="41.0697767" lon="16.7880567"><ele>77.0</ele><time>2026-03-22T08:54:17.984Z</time></trkpt><trkpt lat="41.0698483" lon="16.7879967"><ele>77.0</ele><time>2026-03-22T08:54:20.984Z</time></trkpt><trkpt lat="41.06992" lon="16.7879517"><ele>77.5</ele><time>2026-03-22T08:54:23.984Z</time></trkpt><trkpt lat="41.07" lon="16.787905"><ele>78.0</ele><time>2026-03-22T08:54:26.984Z</time></trkpt><trkpt lat="41.070075" lon="16.7878733"><ele>78.5</ele><time>2026-03-22T08:54:29.984Z</time></trkpt><trkpt lat="41.070145" lon="16.7878367"><ele>79.0</ele><time>2026-03-22T08:54:32.984Z</time></trkpt><trkpt lat="41.0702117" lon="16.7877917"><ele>79.5</ele><time>2026-03-22T08:54:35.984Z</time></trkpt><trkpt lat="41.0702767" lon="16.7877217"><ele>80.0</ele><time>2026-03-22T08:54:38.984Z</time></trkpt><trkpt lat="41.0703317" lon="16.7876733"><ele>80.28571428571428</ele><time>2026-03-22T08:54:40.984Z</time></trkpt><trkpt lat="41.07038" lon="16.7876183"><ele>80.57142857142857</ele><time>2026-03-22T08:54:42.984Z</time></trkpt><trkpt lat="41.0704367" lon="16.7875717"><ele>80.85714285714286</ele><time>2026-03-22T08:54:44.984Z</time></trkpt><trkpt lat="41.0704983" lon="16.7875183"><ele>81.14285714285714</ele><time>2026-03-22T08:54:46.984Z</time></trkpt><trkpt lat="41.0705567" lon="16.7874783"><ele>81.42857142857143</ele><time>2026-03-22T08:54:48.984Z</time></trkpt><trkpt lat="41.070635" lon="16.7874133"><ele>81.71428571428571</ele><time>2026-03-22T08:54:51.984Z</time></trkpt><trkpt lat="41.0707033" lon="16.787365"><ele>82.0</ele><time>2026-03-22T08:54:53.984Z</time></trkpt><trkpt lat="41.0707717" lon="16.7873317"><ele>81.5</ele><time>2026-03-22T08:54:55.984Z</time></trkpt><trkpt lat="41.0708383" lon="16.7873033"><ele>81.0</ele><time>2026-03-22T08:54:57.984Z</time></trkpt><trkpt lat="41.070915" lon="16.7872867"><ele>80.5</ele><time>2026-03-22T08:54:59.984Z</time></trkpt><trkpt lat="41.071" lon="16.7872833"><ele>80.0</ele><time>2026-03-22T08:55:01.984Z</time></trkpt><trkpt lat="41.0710933" lon="16.7872817"><ele>79.5</ele><time>2026-03-22T08:55:03.985Z</time></trkpt><trkpt lat="41.0711783" lon="16.78729"><ele>79.0</ele><time>2026-03-22T08:55:05.984Z</time></trkpt><trkpt lat="41.07127" lon="16.787295"><ele>79.0</ele><time>2026-03-22T08:55:07.984Z</time></trkpt><trkpt lat="41.071355" lon="16.78729"><ele>79.0</ele><time>2026-03-22T08:55:09.984Z</time></trkpt><trkpt lat="41.0714333" lon="16.7873017"><ele>79.0</ele><time>2026-03-22T08:55:11.984Z</time></trkpt><trkpt lat="41.071515" lon="16.7873"><ele>79.0</ele><time>2026-03-22T08:55:13.984Z</time></trkpt><trkpt lat="41.071585" lon="16.7872883"><ele>79.0</ele><time>2026-03-22T08:55:15.984Z</time></trkpt><trkpt lat="41.071675" lon="16.7872783"><ele>79.0</ele><time>2026-03-22T08:55:18.984Z</time></trkpt><trkpt lat="41.07174" lon="16.78727"><ele>78.5</ele><time>2026-03-22T08:55:20.984Z</time></trkpt><trkpt lat="41.071805" lon="16.7872733"><ele>78.0</ele><time>2026-03-22T08:55:22.984Z</time></trkpt><trkpt lat="41.071885" lon="16.7872683"><ele>77.5</ele><time>2026-03-22T08:55:24.984Z</time></trkpt><trkpt lat="41.071965" lon="16.7872733"><ele>77.0</ele><time>2026-03-22T08:55:26.984Z</time></trkpt><trkpt lat="41.0720367" lon="16.7872783"><ele>76.5</ele><time>2026-03-22T08:55:28.984Z</time></trkpt><trkpt lat="41.07211" lon="16.7872983"><ele>76.0</ele><time>2026-03-22T08:55:30.984Z</time></trkpt><trkpt lat="41.0721817" lon="16.7873417"><ele>76.0</ele><time>2026-03-22T08:55:32.984Z</time></trkpt><trkpt lat="41.0722483" lon="16.7873867"><ele>76.0</ele><time>2026-03-22T08:55:34.984Z</time></trkpt><trkpt lat="41.07232" lon="16.7874383"><ele>76.0</ele><time>2026-03-22T08:55:36.984Z</time></trkpt><trkpt lat="41.0723867" lon="16.7874933"><ele>76.0</ele><time>2026-03-22T08:55:38.985Z</time></trkpt><trkpt lat="41.0724583" lon="16.7875583"><ele>76.0</ele><time>2026-03-22T08:55:40.984Z</time></trkpt><trkpt lat="41.072525" lon="16.787605"><ele>76.0</ele><time>2026-03-22T08:55:42.984Z</time></trkpt><trkpt lat="41.0726" lon="16.787595"><ele>76.33333333333333</ele><time>2026-03-22T08:55:44.984Z</time></trkpt><trkpt lat="41.07266" lon="16.7875167"><ele>76.66666666666666</ele><time>2026-03-22T08:55:46.984Z</time></trkpt><trkpt lat="41.07271" lon="16.7874333"><ele>77.0</ele><time>2026-03-22T08:55:48.984Z</time></trkpt><trkpt lat="41.072755" lon="16.7873533"><ele>77.33333333333333</ele><time>2026-03-22T08:55:50.985Z</time></trkpt><trkpt lat="41.0727767" lon="16.7872533"><ele>77.66666666666667</ele><time>2026-03-22T08:55:52.984Z</time></trkpt><trkpt lat="41.0727767" lon="16.7871517"><ele>78.0</ele><time>2026-03-22T08:55:54.984Z</time></trkpt><trkpt lat="41.0727633" lon="16.7870517"><ele>78.0</ele><time>2026-03-22T08:55:56.984Z</time></trkpt><trkpt lat="41.0727233" lon="16.7869683"><ele>78.0</ele><time>2026-03-22T08:55:58.984Z</time></trkpt><trkpt lat="41.0726867" lon="16.786885"><ele>78.0</ele><time>2026-03-22T08:56:00.984Z</time></trkpt><trkpt lat="41.07264" lon="16.7868083"><ele>78.0</ele><time>2026-03-22T08:56:02.984Z</time></trkpt><trkpt lat="41.0725883" lon="16.7867467"><ele>78.0</ele><time>2026-03-22T08:56:04.984Z</time></trkpt><trkpt lat="41.0725433" lon="16.786685"><ele>78.0</ele><time>2026-03-22T08:56:06.984Z</time></trkpt><trkpt lat="41.0725017" lon="16.786605"><ele>78.0</ele><time>2026-03-22T08:56:08.984Z</time></trkpt><trkpt lat="41.07246" lon="16.7865083"><ele>78.42857142857143</ele><time>2026-03-22T08:56:10.984Z</time></trkpt><trkpt lat="41.0724133" lon="16.786415"><ele>78.85714285714285</ele><time>2026-03-22T08:56:12.984Z</time></trkpt><trkpt lat="41.0723933" lon="16.78632"><ele>79.28571428571428</ele><time>2026-03-22T08:56:14.984Z</time></trkpt><trkpt lat="41.0723883" lon="16.78622"><ele>79.71428571428572</ele><time>2026-03-22T08:56:16.984Z</time></trkpt><trkpt lat="41.0723733" lon="16.7861283"><ele>80.14285714285714</ele><time>2026-03-22T08:56:18.984Z</time></trkpt><trkpt lat="41.07235" lon="16.7860417"><ele>80.57142857142857</ele><time>2026-03-22T08:56:20.984Z</time></trkpt><trkpt lat="41.0723333" lon="16.785945"><ele>81.0</ele><time>2026-03-22T08:56:22.984Z</time></trkpt><trkpt lat="41.07232" lon="16.7858483"><ele>82.0</ele><time>2026-03-22T08:56:24.984Z</time></trkpt><trkpt lat="41.072305" lon="16.785765"><ele>82.0</ele><time>2026-03-22T08:56:26.984Z</time></trkpt><trkpt lat="41.0722883" lon="16.7856567"><ele>82.0</ele><time>2026-03-22T08:56:29.984Z</time></trkpt></trkseg></trk></gpx>